COOLWX HOME

EXTREME HOME

OTHER COOLWX PAGES
    Coolwx Hit Images
    Extreme Weather
    Global Forecasts
    Hourly Model Forecasts
    Mesoscale Analysis
    Obs. Weather Database
    Offshore Weather Data
    Precipitation Type
    Record Breakers
    U.S. Weather Statistics


EXTREME WX CATEGORIES
   CITIES & VALUES:
       Temperature
       Dewpoint
       Heat Index
       Wind
       Wind Chill
       Pressure
       Pressure Change
       Precip Type/Intensity
       Precip Amount
       Thunderstorm
       Blizzard
       Visibility
       Astronomical
       Other
       Multiple
       Unknown
   CITIES & FULL REPORTS:
       Temperature
       Dewpoint
       Heat Index
       Wind
       Wind Chill
       Pressure
       Pressure Change
       Precip Type/Intensity
       Precip Amount
       Thunderstorm
       Blizzard
       Visibility
       Astronomical
       Other
       Multiple
   USA & WORLD PLOTS:
       Temperature
       Dewpoint
       Wind
       Wind Chill & Heat Index
       Pressure
       Pressure Change
       Precip Type/Intensity
       Precip Amount
       Thunderstorm
       Blizzard
       Visibility
       Astronomical
       Other
       Unknown
   REPEAT OFFENDERS:
       Today
       Yesterday
       This month
       This year
       Since 2007
   RSS:
       Feed
   ARCHIVE:
       2024061708
       2024061706
       2024061703
       2024061700
       2024061621
       2024061618
       2024061615
       2024061612
       2024061609
       2024061606
       2024061603
       2024061600
       2024061521
       2024061518
       2024061515
       2024061512
       2024061509
       2024061506
       2024061503
       2024061500
       2024061421
       2024061418
       2024061415
       2024061412

CONTACT
       Bob Hart
       (rhart at fsu.edu)

Extreme & Weird Weather of the World - Archive for 2024060821
Currently using 36469 observations from 5232 unique global stations over the past 3 hours.
Last Updated: Sat Jun 8 21:46:40 UTC 2024



1 station reporting temperature -55°C or colder

0 stations reporting temperature -50°C to -54°C

0 stations reporting temperature -45°C to -49°C

0 stations reporting temperature -40°C to -44°C

0 stations reporting temperature 55°C or warmer

0 stations reporting temperature 50°C to 54°C

1 station reporting temperature 45°C to 49°C

46 stations reporting temperature 40°C to 44°C


6 stations reporting dewpoint 30°C or greater

29 stations reporting dewpoint 28-29°C

179 stations reporting dewpoint 26-27°C


0 stations reporting wind gusts 70kt or stronger

0 stations reporting wind gusts 60-69kt

3 stations reporting wind gusts 50-59kt

16 stations reporting wind gusts 40-49kt


1 station reporting (sustained) wind chill of -55°C or colder

0 stations reporting (sustained) wind chill of -50°C to -54°C

0 stations reporting (sustained) wind chill of -45°C to -49°C

0 stations reporting (sustained) wind chill of -40°C to -44°C


2 stations reporting heat index of 55°C or hotter

6 stations reporting heat index of 50°C to 54°C

21 stations reporting heat index of 45°C to 49°C

194 stations reporting heat index of 40°C to 44°C


0 stations reporting sea level pressure < 950mb

0 stations reporting sea level pressure 950mb - 959mb

0 stations reporting sea level pressure 960mb - 969mb

2 stations reporting sea level pressure 970mb - 979mb

  • NZCM: Williams Field, Antarctica [973.6mb, 28.74in]    
    NZCM 082055Z AUTO 14027G38KT 7000 BLSN OVC035 M16/M20 A2874 RMK AO2 PK WND 17046/2024 SLP740 T11641198 55003 $
    NZCM 081955Z AUTO 16030G43KT 9000 BLSN OVC045 M17/M20 A2873 RMK AO2 PK WND 15053/1903 SLP736 T11661198 $
    NZCM 081855Z AUTO 16039G48KT 6000 BLSN BKN002 OVC080 M17/M20 A2873 RMK AO2 PK WND 17056/1807 SLP736 T11691200 $
    NZCM 081755Z AUTO 17038G51KT 5000 BLSN BR BKN002 BKN095 M17/M20 A2875 RMK AO2 PK WND 17052/1738 SLP743 T11731203 11166 21177 50013 $
  • PFTO: UNKNOWN, [979.5mb, 28.92in]    
    PFTO 082056Z AUTO 14010G17KT 10SM CLR 22/M03 A2998 RMK AO2 SLP795 T02221033 56019 $
0 stations reporting sea level pressure 980mb - 989mb

4 stations reporting sea level pressure > 1055mb

  • KCWN: Cheyenne Moutain, CO, United States [1098.8mb, 32.44in]    
    KCWN 082125Z AUTO 19012G21KT 10SM CLR 29/05 A3001 RMK AO2 WSHFT 17 LTG DSNT NE SLP961 $
    KCWN 082055Z AUTO 15014G27KT 10SM CLR 28/07 A3003 RMK AO2 PK WND 15031/16 LTG DSNT NE SLP970 T02800067 55013 $
    KCWN 081955Z AUTO 13017G26KT 10SM CLR 29/08 A3003 RMK AO2 PK WND 13026/50 LTG DSNT NW-NE SLP965 T02860077 $
    KCWN 081855Z AUTO 15018G24KT 10SM VCTS CLR 27/07 A3005 RMK AO2 SLP975 T02720071 $
    KCWN 081755Z AUTO 16014G20KT 10SM CLR 27/07 A3008 RMK AO2 SLP988 T02690073 10277 20187 57012 $
  • KQRP: UNKNOWN, [1099.1mb, 32.45in]    
    KQRP 082055Z AUTO 10010G18KT 10SM CLR 31/07 A2997 RMK AO2 SLP970 WND DATA ESTMD T03110068 56015 PWINO
    KQRP 081955Z AUTO 10009G17KT 10SM FEW230 30/07 A2998 RMK AO2 LTG DSNT N SLP974 WND DATA ESTMD T03020069 PWINO
    KQRP 081855Z AUTO 11008G16KT 10SM CLR 29/07 A3000 RMK AO2 SLP980 WND DATA ESTMD T02940069 PWINO
    KQRP 081755Z AUTO 11006KT 10SM CLR 28/07 A3003 RMK AO2 SLP991 WND DATA ESTMD T02800068 10256 20153 57013 PWINO
  • PACX: UNKNOWN, [1084.0mb, 32.00in]    
    PACX 082056Z AUTO 09010KT 10SM FEW070 21/03 A3011 RMK AO2 SLP821 T02110033 58018
    PACX 081956Z AUTO 01008KT 10SM CLR 19/05 A3013 RMK AO2 SLP828 T01940050
    PACX 081856Z AUTO 36010KT 10SM CLR 18/06 A3015 RMK AO2 SLP834 T01780061
    PACX 081756Z AUTO 01010KT 10SM CLR 16/06 A3017 RMK AO2 SLP840 T01560061 10156 20067 58014
  • PFTO: UNKNOWN, [1081.4mb, 31.93in]    
    PFTO 082056Z AUTO 14010G17KT 10SM CLR 22/M03 A2998 RMK AO2 SLP795 T02221033 56019 $
    PFTO 081956Z AUTO 13008G19KT 10SM CLR 22/M02 A3000 RMK AO2 SLP801 T02171022 $
    PFTO 081856Z AUTO 11011G15KT 10SM CLR 21/M01 A3002 RMK AO2 SLP807 T02061006 $
    PFTO 081756Z AUTO 12005KT 10SM CLR 18/02 A3004 RMK AO2 SLP814 T01830022 10183 20017 58017 $
0 stations reporting sea level pressure 1050-1054mb

1 station reporting sea level pressure 1045-1049mb

  • FDMY: Mayiwane, Swaziland [1045mb, 30.85in]    
    FDMY 082000Z AUTO 03002KT //// // ////// 12/09 Q1045
    FDMY 081900Z AUTO 00000KT //// // ////// 13/09 Q1045
1 station reporting sea level pressure 1040-1044mb

  • SLLP: La Paz / Alto, Bolivia [1041mb, 30.73in]    
    SLLP 082100Z 28009KT 9999 NSC 14/M10 Q1040
    SLLP 082000Z 11007KT 9999 NSC 16/M11 Q1040
    SLLP 081900Z 16005KT 9999 NSC 16/M10 Q1040
    SLLP 081800Z 29006KT 9999 NSC 16/M10 Q1041
13 stations reporting sea level pressure 1035-1039mb

  • FAKN: Kruger Mpumalanga, South Africa [1036mb, 30.59in]    
    FAKN 082100Z AUTO 31002KT //// // ////// 11/07 Q1035
    FAKN 082000Z AUTO 32003KT //// // ////// 12/07 Q1036
    FAKN 081900Z 07002KT //// ////// 13/07 Q1035
    FAKN 081800Z 08002KT 9999 SCT035 13/07 Q1035 NOSIG
  • FALA: Lanseria Civ / Mil, South Africa [1035mb, 30.56in]    
    FALA 082100Z AUTO 12004KT //// ///////// 07/01 Q1035 NOSIG
  • FAOR: Johannesburg/tam, South Africa [1035mb, 30.56in]    
    FAOR 082100Z 06007KT 020V090 CAVOK 04/01 Q1035 NOSIG
    FAOR 082030Z 08008KT CAVOK 04/02 Q1035 NOSIG
    FAOR 082000Z 09008KT CAVOK 05/02 Q1035 NOSIG
    FAOR 081900Z 08008KT CAVOK 05/02 Q1035 NOSIG
  • FAPP: Polokwane Intl, South Africa [1036mb, 30.59in]    
    FAPP 082100Z AUTO 04003KT //// // ////// 07/04 Q1036
    FAPP 082000Z AUTO 01003KT //// // ////// 06/03 Q1036
    FAPP 081900Z AUTO 05003KT //// // ////// 09/04 Q1036
    FAPP 081800Z 09007KT CAVOK 10/03 Q1035 NOSIG
  • FASI: Springs, South Africa [1038mb, 30.65in]    
    FASI 082100Z AUTO 14002KT //// // ////// 03/01 Q1038
    FASI 081800Z AUTO 15007KT //// // ////// 06/02 Q1037
  • FAVV: Vereeniging, South Africa [1035mb, 30.56in]    
    FAVV 082100Z AUTO 03013KT //// // ////// 06/02 Q1035
    FAVV 081800Z AUTO 07003KT //// // ////// 08/02 Q1035
  • FAWK: Waterkloof Lmb, South Africa [1035mb, 30.56in]    
    FAWK 082100Z AUTO 12008KT //// // ////// 07/02 Q1035
    FAWK 082000Z AUTO 12010KT //// // ////// 07/02 Q1035
  • FDOT: Moti, Swaziland [1035mb, 30.56in]    
    FDOT 082000Z AUTO 00000KT //// // ////// 16/12 Q1035
    FDOT 081900Z AUTO 00000KT //// // ////// 17/11 Q1035
  • FDPP: Piggs Peak, Swaziland [1037mb, 30.62in]    
    FDPP 082000Z AUTO 29004KT //// // ////// 10/08 Q1037
    FDPP 081900Z AUTO 28002KT //// // ////// 11/07 Q1037
  • SLOR: Oruro, Bolivia [1035mb, 30.56in]    
    SLOR 082100Z 27004KT 9999 NSC 18/M05 Q1035
    SLOR 082000Z 32005KT 9999 NSC 19/M06 Q1035
  • SPHY: Andahuayla, Peru [1037mb, 30.62in]    
    SPHY 081900Z 01007KT CAVOK 19/08 Q1037 RMK BIRD HAZARD RWY03/21 PP000
    SPHY 081800Z 01008KT CAVOK 18/06 Q1037 RMK BIRD HAZARD RWY03/21 PP000
  • SPJJ: Jauja, Peru [1036mb, 30.59in]    
    SPJJ 081800Z 10006KT CAVOK 18/01 Q1036 RMK BIRD HAZARD RWY13/31 PP000
  • SPJL: Juliaca, Peru [1039mb, 30.68in]    
    SPJL 082100Z VRB03KT CAVOK 17/M21 Q1036 RMK BIRD HAZARD RWY 12/30 PP000
    SPJL 082000Z VRB05KT CAVOK 17/M20 Q1037 RMK BIRD HAZARD RWY 12/30 PP000
    SPJL 081900Z VRB06KT CAVOK 17/M19 Q1038 RMK BIRD HAZARD RWY 12/30 PP000
    SPJL 081800Z 09006KT 040V140 CAVOK 16/M18 Q1039 RMK BIRD HAZARD RWY 12/30 PP000


0 stations reporting 3-hourly pressure fall of 10mb or greater

0 stations reporting 3-hourly pressure fall of 5mb to 9.9mb

10 stations reporting 3-hourly pressure rise of 5mb to 9.9mb

  • CERM: Edmunston, NB, Canada [9.4mb]
    CERM 081800Z AUTO 14004KT 16/14 RMK AO1 6010 SLP002 T01590143 50094
  • CWBZ: St Anicet, Canada [6.6mb]
    CWBZ 082100Z AUTO 25008KT 17/15 RMK AO1 7PAST HR 1009 PK WND 24025/2009 SLP032 P0007 T01670150 50066
  • CWFQ: Frelighsburg, Canada [7.9mb]
    CWFQ 081800Z AUTO 27004KT 18/14 RMK AO1 8001 SLP023 T01780136 50079
  • CWIS: Charlevoix CS , Que., Canada [9.2mb]
    CWIS 082100Z AUTO 12001KT 11/10 RMK AO1 2PAST HR 3004 SLP010 P0032 T01060104 50092
  • CWJB: Ste Foy CS , Que., Canada [7.8mb]
    CWJB 081800Z AUTO 21003KT 18/14 RMK AO1 T01790144 50078
  • CWNH: Riviere Du Loup, Que., Canada [8.8mb]
    CWNH 081800Z AUTO 36008KT 14/12 RMK AO1 8004 SLP000 T01380124 50088
  • CWPD: Parc Des Laurentid, Canada [5.2mb]
    CWPD 081800Z AUTO 17001KT 13/11 RMK AO1 6001 SLP975 T01260109 50052
  • CWPK: Parent, Que., Canada [7.0mb]
    CWPK 081800Z AUTO 32002KT 17/15 RMK AO1 8PAST HR 7002 SLP998 P0003 T01730153 50070
  • CXBO: Beauport CS, Que., Canada [9.2mb]
    CXBO 081800Z AUTO 25007KT 18/14 RMK AO1 T01830135 50092
  • CXSH: Shawinigan CS , Que., Canada [9.6mb]
    CXSH 081800Z AUTO 19003KT 17/15 RMK AO1 8PAST HR 8001 SLP004 P0007 T01690148 50096
2 stations reporting 3-hourly pressure rise of 10mb or greater

  • CWIS: Charlevoix CS , Que., Canada [12.2mb]
    CWIS 081800Z AUTO 20004KT 12/12 RMK AO1 8002 SLP004 T01240116 50122
  • KDYS: Abilene, Dyess AFB, TX, United States [12.1mb]
    KDYS 081755Z 16016G22KT 10SM CLR 33/16 A2993 RMK AO2A SLPNO ALSTG DATA ESTMD T03290162 10331 20226 52121


0 stations reporting heavy snow

0 stations reporting any sleet

0 stations reporting any freezing rain

54 stations reporting heavy rain

  • CYMX: Montreal / Mirabel, Canada
    CYMX 082121Z 29006KT 240V330 3SM +SHRA BKN026TCU BKN050 BKN090 18/16 A2959 RMK TCU6SC1AC1 AC TR SLP023 DENSITY ALT 1100FT
  • CYRQ: Trois Rivieres, Que, Canada
    CYRQ 082124Z AUTO 24004KT 220V290 7SM +RA VCTS FEW034 BKN050 BKN071 OVC083 17/16 A2953 RMK LTNG DIST S PCPN 1.2MM PAST HR SLP004 DENSITY ALT 900FT
  • CYSC: Sherbrooke, Que., Canada
    CYSC 081749Z AUTO 26015G24KT 250V330 5SM +RA FEW013 SCT018 BKN031 BKN042 14/11 A2957 RMK LTNG DIST N NW PCPN 4.3MM PAST HR SLP016 DENSITY ALT 1300FT
  • CYVP: Kuujjuaq, Que., Canada
    CYVP 081951Z 01011KT 3SM +RA BKN008 BKN012 OVC040 00/M00 A2976 RMK RA2SF4SC1SC1 SLP081
  • EETU: Tartu/Ulenurme, Estonia
    EETU 081850Z AUTO 19004KT 9999 +RA NCD 13/09 Q1009
  • ESGJ: Jonkoping Flygplats, Sweden
    ESGJ 081850Z AUTO 23005KT 180V290 4000 +RA FEW003/// BKN007/// BKN016/// 08/08 Q1000
  • ESKM: Siljan / Mora, Sweden
    ESKM 082120Z AUTO 16009KT 8000 +RA SCT007/// BKN009/// OVC014/// 10/10 Q0995
  • ESMX: Vaxjo, Sweden
    ESMX 081750Z AUTO 23014G31KT 160V270 8000 +RA FEW002/// BKN043/// 10/09 Q1003 RESHRA
  • K2IS: Clewiston, FL, United States
    K2IS 081815Z AUTO 20013G18KT 3SM +RA SCT004 BKN042 BKN070 31/24 A2996 RMK AO2 P0007 TSNO T03080241
    K2IS 081835Z AUTO 17013KT 3/4SM +RA BR SCT004 BKN009 OVC015 25/23 A2999 RMK AO2 P0056 TSNO T02510229
    K2IS 081855Z AUTO 05009KT 1 1/4SM +RA SCT007 OVC012 24/21 A2997 RMK AO2 VIS 3/4V2 1/2 P0121 TSNO T02430210
  • K57C: East Troy, WI, United States
    K57C 082115Z AUTO 07004KT 4SM +RA SCT007 BKN013 OVC040 14/14 A2983 RMK AO2 P0002 T01350135
  • K82V: Pine Bluffs Municipality, WY, United States
    K82V 081955Z AUTO 06011KT 4SM +RA 17/13 A3003 RMK AO2 LTG DSNT ALQS
  • KBAX: Bad Axe, Huron County Memorial Airport, MI, United States
    KBAX 081815Z AUTO 36009KT 10SM +RA SCT055 OVC065 14/11 A2985 RMK AO2 T01370106
    KBAX 082115Z AUTO 00000KT 7SM +RA BKN055 OVC085 13/12 A2984 RMK AO2 T01320115
  • KBML: Berlin, Berlin Municipal Airport, NH, United States
    KBML 081858Z AUTO VRB05KT 1 3/4SM +RA FEW029 SCT041 BKN050 16/12 A2961 RMK AO2 VIS 3/4V5 P0004 T01560122
    KBML 082012Z AUTO VRB03KT 1 1/4SM +RA FEW026 BKN037 OVC075 17/13 A2961 RMK AO2 RAB04 P0007 T01670133
  • KCAO: Clayton, Clayton Municipal Airpark, NM, United States
    KCAO 082029Z AUTO 22015G27KT 6SM +RA FEW037 SCT055 OVC110 24/12 A2997 RMK AO2 PK WND 23027/2028 WSHFT 2015 LTG DSNT NE AND E TSB08E28 PRESRR P0017 T02440122 $
  • KCAR: Caribou, Caribou Municipal Airport, ME, United States
    KCAR 082125Z AUTO 22005KT 1 3/4SM +RA BR BKN011 BKN017 OVC021 16/14 A2949 RMK AO2 P0005 T01560139
    KCAR 082128Z AUTO 25006KT 1SM +RA BR SCT009 BKN017 OVC021 16/14 A2949 RMK AO2 P0010 T01560139
    KCAR 082130Z AUTO 25006KT 3/4SM +RA BR SCT007 BKN014 OVC021 16/14 A2949 RMK AO2 P0013 T01560144
    KCAR 082139Z AUTO 33007KT 1/2SM +RA FG FEW005 SCT009 OVC024 16/14 A2949 RMK AO2 P0033 T01560144
  • KCFS: Caro/Tuscola, MI, United States
    KCFS 082035Z AUTO 01004KT 5SM +RA SCT023 SCT031 OVC060 14/14 A2985 RMK AO2 T01370135
    KCFS 082055Z AUTO 02003KT 5SM +RA SCT025 BKN046 OVC060 14/13 A2985 RMK AO2 T01350134
  • KCYS: Cheyenne, Cheyenne Airport, WY, United States
    KCYS 081804Z 23004KT 4SM VCTS +RA SCT045 BKN055 OVC090 19/12 A3007 RMK AO2 LTG DSNT N AND S AND NW P0003 T01890122
    KCYS 081824Z VRB03KT 10SM +RA FEW049 BKN060 OVC085 19/14 A3007 RMK AO2 LTG DSNT N AND S AND NW P0007 T01890139
  • KD25: Manitowish Waters, WI, United States
    KD25 081855Z AUTO 35012G18KT 7SM +RA SCT035 BKN046 OVC075 15/10 A2982 RMK AO2 P0004 T01530098
  • KFEW: Francis Warren AFB, WY, United States
    KFEW 081755Z AUTO 28004KT 9SM +RA FEW047 SCT080 BKN100 OVC140 20/12 A3010 RMK AO2 LTG DSNT SW-E RAB48 SLP119 P0003 60003 T01980115 10244 20118 55002 $
  • KFMM: Fort Morgan, CO, United States
    KFMM 082115Z AUTO 10020KT 2 1/2SM +RA HZ FEW012 SCT044 BKN065 25/16 A2989 RMK AO2 LTG DSNT ALQDS
  • KHIE: Whitefield, NH, United States
    KHIE 082052Z AUTO 28009G22KT 1 1/4SM +RA BKN033 BKN060 OVC090 15/12 A2965 RMK AO2 RAB49 SLP042 P0008 60010 T01500122 53010
  • KHUL: Houlton, Houlton Intl Arpt, ME, United States
    KHUL 082042Z AUTO 24008KT 1 1/4SM +RA BR FEW019 BKN043 OVC070 14/12 A2952 RMK AO2 RAB22 TSB26E41 P0011 T01390117
  • KHWO: Hollywood, North Perry Airport, FL, United States
    KHWO 082027Z 23011KT 5SM VCTS +RA SCT019 BKN028 OVC049 28/24 A2997 RMK AO2 LTG DSNT NW RAB25 TSB06E21 P0002 T02780239 $
    KHWO 082030Z 21012KT 4SM +RA SCT019 BKN047 OVC060 28/24 A2997 RMK AO2 LTG DSNT NW RAB25 TSB06E21 P0003 T02780239 $
    KHWO 082036Z 21013KT 2 1/2SM VCTS +RA SCT020 SCT034 OVC055 27/24 A2996 RMK AO2 VIS 1 1/4V5 LTG DSNT NW RAB25 TSB06E21 P0009 T02670239 $
    KHWO 082050Z 23009KT 3SM +RA FEW019 BKN046 OVC080 26/23 A2996 RMK AO2 LTG DSNT NW RAB25 TSB06E21 P0020 $
  • KISQ: Manistique, Schoolcraft County Airport, MI, United States
    KISQ 082035Z AUTO 31010G18KT 4SM +RA SCT035 OVC060 13/11 A2977 RMK AO2 P0004 T01250105
  • KMBL: Manistee, Manistee County-Blacker Airport, MI, United States
    KMBL 081756Z AUTO 30006KT 9SM +RA FEW027 BKN035 OVC060 13/13 A2987 RMK AO2 SLP118 P0013 60018 T01280128 10156 20128 51014
  • KMBS: Saginaw, MBS Intl Arpt, MI, United States
    KMBS 081953Z AUTO 02010KT 2 1/2SM +RA BR FEW016 BKN042 OVC075 15/13 A2984 RMK AO2 SLP105 P0001 T01500133
  • KMDW: Chicago, Chicago Midway Airport, IL, United States
    KMDW 082112Z 36019G25KT 1 1/2SM +RA BR BKN020 OVC037 17/14 A2979 RMK AO2 P0009 T01670139
  • KMOP: Mount Pleasant, MI, United States
    KMOP 082115Z AUTO 00000KT 4SM +RA SCT011 BKN065 OVC080 14/13 A2983 RMK AO2 P0002 T01360128
  • KOPF: Miami, Opa Locka Airport, FL, United States
    KOPF 081956Z 25007KT 2 1/2SM VCTS +RA BKN029 OVC036 28/25 A2995 RMK AO2 VIS 1V5 LTG DSNT NW P0010 T02780250
    KOPF 082002Z 21007G20KT 4SM VCTS +RA SCT025 OVC033 27/24 A2995 RMK AO2 LTG DSNT NW P0023 T02670239
    KOPF 082028Z 34010KT 4SM +RA BR FEW024 BKN036 OVC046 26/24 A2996 RMK AO2 LTG DSNT NW TSB04E28 P0044 T02610244
    KOPF 082053Z 30003KT 4SM +RA BR BKN050 BKN060 OVC075 26/25 A2994 RMK AO2 TSB04E28B35E50 SLP141 P0059 60066 T02610250 56005
  • KPQI: Presque Isle, ME, United States
    KPQI 082046Z AUTO 23012KT 7SM +RA SCT009 BKN014 OVC025 14/13 A2952 RMK AO2 TSB25E40RAB09 P0021
  • KSUA: Stuart, Witham Field Airport, FL, United States
    KSUA 081947Z 18010G24KT 7SM +RA HZ BKN004 BKN027 28/24 A2994
  • KU52: Beaver, UT, United States
    KU52 081755Z AUTO 36006KT 10SM +RA CLR 29/05 A3007 RMK AO2
    KU52 081815Z AUTO 01007KT 10SM +RA CLR 29/05 A3007 RMK AO2
  • LERI: Murcia / Alcantarilla, Spain
    LERI 081751Z 29024G39KT 9999 +SHRA FEW020 SCT054CB 21/16 Q1006 NOSIG
  • LETL: Tereul, Spain
    LETL 082100Z AUTO 13005KT 070V170 2400 +RA FEW029 BKN041 13/13 Q1013
  • LFGJ: Dole Tavaux, France
    LFGJ 081930Z AUTO 25007KT 3400 +RA BR VCTS SCT012/// BKN020/// BKN052/// //////CB 19/18 Q1013
    LFGJ 081930Z AUTO 25007KT 3400 +RA BR VCTS SCT012/// BKN020/// BKN052/// ///CB 19/18 Q1013
  • LSGC: Les Eplatures, Switzerland
    LSGC 082020Z AUTO VRB01KT 8000 +RA BKN010 //////TCU 15/14 Q1015
  • MGZA: Zacapa, Guatemala
    MGZA 082000Z 36008KT 7000 +RA SCT020 FEW030CB SCT100 35/21 QFE 985.1 CB SE/SSW/SW
    MGZA 082000Z 36008KT 7000 +RA SCT020 FEW030CB SCT100 35/21 QFE 985/1 CB SE/SSW/SW
  • RJFR: Kitakyushu Airport, Japan
    RJFR 081902Z AUTO 10020KT 2600 +RA BR BKN002 OVC033 //////TCU 19/19 Q1007 RMK A2976 RI015 TCU 5KM W MOV N
    RJFR 081909Z AUTO 09019KT 2000 +RA BR SCT002 BKN009 BKN016 //////TCU 19/19 Q1008 RMK A2977 RI015 TCU 5KM W MOV N
    RJFR 081911Z AUTO 09018KT 2300 +RA BR BKN002 BKN009 OVC032 19/19 Q1008 RMK A2977 RI015
    RJFR 081922Z AUTO 09019KT 1500 R18/P2000N +RA BR FEW002 SCT008 BKN011 19/19 Q1007 RMK A2976 RI017
    RJFR 081925Z AUTO 09019KT 1400 R18/P2000N +RA BR FEW002 SCT010 BKN011 19/19 Q1007 RMK A2976 RI027
    RJFR 081928Z AUTO 09019KT 1400 R18/P2000N +RA BR BKN002 OVC020 19/19 Q1007 RMK A2976 RI018
    RJFR 081937Z AUTO 10020KT 1700 +RA BR OVC002 19/19 Q1007 RMK A2976 RI018
  • RJFY: Kanoya Ab, Japan
    RJFY 082116Z 11004KT 3100 +SHRA BR FEW003 SCT009 BKN025 FEW025CB 21/20 Q1005 RMK 2ST003 3ST009 7CU025 1CB025 A2969 CB 10KM S MOV NE
  • RJOZ: Ozuki Ab, Japan
    RJOZ 081927Z 11012KT 4000 +SHRA BR FEW008 BKN015 BKN025 FEW025TCU 20/18 Q1008 RMK 2ST008 5CU015 7CU025 2TCU025 A2977 TCU 5KM SW MOV NE VIS VRB
    RJOZ 081952Z 11010KT 4000 +SHRA BR FEW008 BKN015 BKN025 FEW025TCU 19/18 Q1008 RMK 2ST008 5CU015 7CU025 2TCU025 A2977 TCU 5KM SW MOV NE
  • SBBE: Belem Aeroporto, Brazil
    SBBE 082100Z 04015KT 1200 R06/0150N +RA SCT014 BKN039 BKN070 27/25 Q1013
  • SCCH: Chillan, Chile
    SCCH 082100Z 03020KT 2000 +RA OVC020 14/12 Q1007
  • SCGE: Maria Dolores, Chile
    SCGE 082100Z 36020KT 4000 +RA BKN010 OVC030 13/12 Q1006
  • SCIE: Concepcion, Chile
    SCIE 081800Z 01020G37KT 2000 +RA SCT011 OVC018 14/13 Q1006
    SCIE 081900Z 01022KT 330V030 1500 +RA SCT012 OVC022 13/13 Q1005
  • SCPQ: Mocopulli, Chile
    SCPQ 082000Z 35013KT 2600 +RA BKN003 OVC010 12/12 Q0996
  • SCQP: La Araucania, Chile
    SCQP 082100Z 02012KT 6000 +RA OVC015 12/12 Q1004
  • SKMU: Mitu, Colombia
    SKMU 082100Z VRB03KT 2500 +RA SCT010 BKN020TCU 23/23 Q1014
  • TTCP: Crown Pt./ Scarborou, Trinidad and Tobago
    TTCP 081800Z 11016G26KT 1000 +SHRA VCSH BKN008CB SCT012 25/24 Q1015 NOSIG RMK CB OVRHD N S SW W
  • UHHH: Habarovsk, Russia
    UHHH 082130Z 04004MPS 0900 0800NE R05L/1100U R05R/1600U +SHRA BKN002 OVC013CB 11/11 Q1005 R88/290045 NOSIG RMK QBB060 QFE747/0997
  • VVCI: Cat Bi, Viet Nam
    VVCI 081930Z 31007KT 240V350 2000 +RA BKN008 BKN012 27/26 Q1002
  • YGEL: Geraldton Airport, Australia
    YGEL 081907Z AUTO 31016G29KT 3200 +RA BKN009 BKN021 OVC042 22/20 Q1008
  • YPJT: Perth Jandakot, Australia
    YPJT 082021Z AUTO 27017KT 270V360 3400 +SHRA SCT013 BKN031 BKN043 18/17 Q1004
    YPJT 082024Z AUTO 28018KT 270V360 2000 +SHRA BKN013 BKN029 BKN044 17/16 Q1004
    YPJT 082028Z AUTO 28017G27KT 1900 +SHRA BKN013 BKN031 BKN044 17/17 Q1004
    YPJT 082030Z AUTO 29018KT 2200 +SHRA SCT013 BKN031 BKN044 17/17 Q1004
    YPJT 082031Z AUTO 29017G27KT 3100 +SHRA SCT013 BKN031 BKN044 17/17 Q1004
  • YPPH: Belmont Perth Airport, Australia
    YPPH 082041Z AUTO 31017KT 300V360 1000 +SHRA SCT014 BKN023 BKN038 18/17 Q1004
    YPPH 082047Z AUTO 27014KT 260V330 1100 +SHRA SCT007 BKN016 OVC027 18/17 Q1004
  • YPXM: Christmas Island Aerodrome, Christmas Island
    YPXM 081830Z AUTO 11011KT 3800 +RA SCT005 OVC010 25/24 Q1013
2 stations reporting unknown precipitation type

  • KCBF: Council Bluffs, IA, United States
    KCBF 082135Z AUTO 03008KT 9SM UP CLR 22/15 A2992 RMK AO2
  • KTMK: Tillamook, OR, United States
    KTMK 081855Z AUTO 31005KT 3/4SM UP BR OVC015 17/17 A3000 RMK AO2 VIS 1/2V2 1/2
    KTMK 081915Z AUTO 28004KT 3/4SM UP BR OVC014 17/17 A3001 RMK AO2


0 stations reporting ice accretion in the past 1 hour

0 stations reporting ice accretion in the past 3 hours

0 stations reporting ice accretion in the past 6 hours

0 stations reporting hourly snow depth increase (SNINCR) of 3+"

0 stations reporting hourly snow depth increase (SNINCR) of 2"

0 stations reporting hourly snow depth increase (SNINCR) of 1"

0 stations reporting hourly (melted) precip total of 3" or greater

0 stations reporting hourly (melted) precip total of 2-2.99"

3 stations reporting hourly (melted) precip total of 1-1.99"

  • K2IS: Clewiston, FL, United States [1.21in]
    K2IS 081855Z AUTO 05009KT 1 1/4SM +RA SCT007 OVC012 24/21 A2997 RMK AO2 VIS 3/4V2 1/2 P0121 TSNO T02430210
  • KF45: North Palm Beach County AP, FL, United States [1.29in]
    KF45 081855Z AUTO 07014G23KT 3/4SM +TSRA OVC003 24/24 A2997 RMK AO2 P0129
  • KHWO: Hollywood, North Perry Airport, FL, United States [1.48in]
    KHWO 081840Z 1/4SM +TSRA FG BKN009 OVC037 25/23 A3000 RMK AO2 PK WND 36030/1827 WSHFT 1807 LTG DSNT N AND W RAB04 TSB01 P0120 T02500228 $
    KHWO 081842Z 1/2SM +TSRA BKN011 OVC037 25/22 A3000 RMK AO2 PK WND 36030/1827 WSHFT 1807 LTG DSNT N AND W RAB04 TSB01 P0128 T02500222 $
    KHWO 081853Z 15009G20KT 1 1/4SM +TSRA BKN013 BKN031 OVC040 24/22 A2998 RMK AO2 PK WND 36030/1827 WSHFT 1807 LTG DSNT N AND W RAB04 TSB01 SLP152 P0148 T02440217 $
4 stations reporting hourly (melted) precip total of 0.5-0.99"

  • K2IS: Clewiston, FL, United States [0.56in]
    K2IS 081835Z AUTO 17013KT 3/4SM +RA BR SCT004 BKN009 OVC015 25/23 A2999 RMK AO2 P0056 TSNO T02510229
  • KF45: North Palm Beach County AP, FL, United States [0.61in]
    KF45 081830Z AUTO 10021G33KT 1/2SM +TSRA OVC003 24/24 A2996 RMK AO2 P0061
  • KHWO: Hollywood, North Perry Airport, FL, United States [0.84in]
    KHWO 081830Z 02018G30KT 1/2SM +TSRA SCT011 BKN023 OVC037 25/22 A3001 RMK AO2 PK WND 36030/1827 WSHFT 1807 RAB04 TSB01 PRESRR P0056 T02500222 $
    KHWO 081833Z 02012G30KT 1/2SM +TSRA BKN009 BKN023 OVC039 25/22 A3001 RMK AO2 PK WND 36030/1827 WSHFT 1807 LTG DSNT N RAB04 TSB01 PRESRR P0084 T02500222 $
  • KOPF: Miami, Opa Locka Airport, FL, United States [0.59in]
    KOPF 082041Z 33007G15KT 4SM +TSRA BR FEW026 BKN048 OVC055 26/24 A2996 RMK AO2 LTG DSNT NW TSB04E28B35 P0055 T02610244
    KOPF 082053Z 30003KT 4SM +RA BR BKN050 BKN060 OVC075 26/25 A2994 RMK AO2 TSB04E28B35E50 SLP141 P0059 60066 T02610250 56005
0 stations reporting 3 or 6 hourly (melted) precip total of 5" or greater

0 stations reporting 3 or 6 hourly (melted) precip total of 4-4.99"

0 stations reporting 3 or 6 hourly (melted) precip total of 3-3.99"

0 stations reporting 3 or 6 hourly (melted) precip total of 2-2.99"


0 stations reporting tornado, funnel cloud or waterspout

0 stations reporting mammatus cloud

0 stations reporting hail

0 stations reporting thundersnow

0 stations reporting thundersleet

0 stations reporting thunder with freezing rain

80 stations reporting thunder with rain

  • CYRQ: Trois Rivieres, Que, Canada
    CYRQ 081934Z AUTO 25011G17KT 210V280 7SM TSRA FEW022 BKN031 BKN055 OVC095 17/13 A2955 RMK LTNG DIST SE S PRESRR PCPN 1.5MM PAST HR SLP009 DENSITY ALT 900FT
    CYRQ 081943Z AUTO 29003KT 230V320 3SM TSRA BR SCT026 BKN037 BKN055 OVC083 15/13 A2955 RMK LTNG DIST E SE S PCPN 4.3MM PAST HR SLP008 DENSITY ALT 800FT
    CYRQ 081949Z AUTO 00000KT 6SM -TSRA BR SCT026 BKN043 BKN071 OVC089 15/13 A2954 RMK LTNG DIST ALQDS PCPN 4.6MM PAST HR SLP006 DENSITY ALT 700FT
    CYRQ 082109Z AUTO 25005KT 9SM -TSRA FEW034 SCT049 BKN086 OVC210 18/16 A2953 RMK SLP004 DENSITY ALT 1000FT
  • CYSB: Sudbury, Ont., Canada
    CYSB 082037Z 23017G25KT 20SM -TSRA BKN043CB BKN160 20/10 A2964 RMK CB5AC2 LTGCG NE SLP043 DENSITY ALT 2300FT
    CYSB 082100Z 24013G25KT 15SM -TSRA SCT042CB BKN110 18/10 A2965 RMK CB4AC3 SLP047 DENSITY ALT 2100FT
  • CYSC: Sherbrooke, Que., Canada
    CYSC 082050Z AUTO 25013G18KT 7SM TSRA FEW010 SCT021 BKN032 BKN046 17/14 A2957 RMK LTNG DIST N NW PCPN 1.3MM PAST HR SLP015 DENSITY ALT 1700FT
    CYSC 082055Z AUTO 24008G18KT 7SM -TSRA FEW010 BKN026 BKN044 OVC055 17/15 A2956 RMK LTNG DIST N NW PCPN 1.8MM PAST HR SLP014 DENSITY ALT 1600FT
    CYSC 082059Z AUTO 24007G17KT 8SM -TSRA FEW008 SCT023 BKN036 OVC076 17/15 A2956 RMK LTNG DIST N NW PCPN 2.0MM PAST HR SLP014 DENSITY ALT 1600FT
    CYSC 082100Z AUTO 25007G15KT 8SM -TSRA FEW008 SCT023 BKN036 BKN055 17/15 A2956 RMK LTNG DIST N NE NW PCPN 2.0MM PAST HR SLP015 DENSITY ALT 1600FT
    CYSC 082106Z AUTO 24008KT 210V280 9SM -TSRA FEW012 BKN022 BKN036 BKN055 17/15 A2957 RMK LTNG DIST ALQDS SLP016 DENSITY ALT 1600FT
    CYSC 082126Z AUTO 27006KT 220V290 9SM -TSRA BKN016 BKN034 BKN047 16/15 A2958 RMK LTNG DIST NE E SE SLP019 DENSITY ALT 1500FT
  • DNPO: Port Harcourt, Nigeria
    DNPO 081800Z 21006KT 8000 -TSRA BKN009 FEW020CB 27/26 Q1012 NOSIG
    DNPO 081900Z 21004KT 6KM -TSRA BKN008 FEW020CB 26/25 Q1013
    DNPO 082000Z 20005KT 8000 -TSRA BKN008 FEW020CB 25/25 Q1013 NOSIG
  • GOTK: Kedougou, Senegal
    GOTK 081800Z 16012KT 9999 -TSRA FEW015TCU FEW030CB 28/21 Q1011
    GOTK 081900Z 12010KT 8000 -TSRA FEW008 FEW030CB 27/23 Q1013
    GOTK 082100Z 28004KT 8000 -TSRA FEW030CB 26/24 Q1015
  • K1EW: Echo Madis, NE, United States
    K1EW 082055Z AUTO 00000KT 10SM TSRA FEW038 OVC085 17/13 A3007 RMK AO2 RAB09 TSB29 PRESRR SLP141 P0013 60013 T01710128 53014 $
  • K82V: Pine Bluffs Municipality, WY, United States
    K82V 082035Z AUTO 27014KT 10SM -TSRA 17/13 A3009 RMK AO2 LTG DSNT ALQS
    K82V 082055Z AUTO 25016G24KT 5SM TSRA 13/11 A3012 RMK AO2 LTG DSNT ALQS
    K82V 082115Z AUTO 09008KT 7SM -TSRA 14/12 A3006 RMK AO2 LTG DSNT ALQS
  • KAFF: Air Force Academy, CO, United States
    KAFF 081844Z 18006KT 10SM -TSRA FEW080 BKN110CB BKN140 26/06 A3004 RMK AO2A TS OHD MOV E SLP080
    KAFF 081855Z 19009KT 10SM -TSRA FEW020 SCT110CB BKN140 BKN160 24/10 A3004 RMK AO2A TS 2W MOV E RAB44 SLP080 P0000 T02420101
  • KAPA: Denver, Centennial Airport, CO, United States
    KAPA 081853Z 35010KT 10SM -TSRA SCT070CB BKN150 BKN200 24/11 A3000 RMK AO2 RAB45 TSB38 SLP087 OCNL LTGICCG ALQDS TS ALQDS MOV E P0000 T02440106
  • KAUG: Augusta, Augusta State Airport, ME, United States
    KAUG 081753Z AUTO 32007KT 7SM -TSRA SCT038 BKN045 OVC080 17/12 A2958 RMK AO2 LTG DSNT ALQDS RAB39 TSB35 SLP016 P0002 60002 T01670122 10233 20161 53003
  • KBGR: Bangor, Bangor Intl Arpt, ME, United States
    KBGR 081935Z 21006KT 10SM -TSRA FEW016CB SCT070 BKN090 18/16 A2955 RMK AO2 LTG DSNT S TSB35 OCNL LTGICCC NE TS NE MOV E CB NE P0002 T01780156
  • KBJC: Broomfield / Jeffco, CO, United States
    KBJC 082110Z 34013G25KT 10SM -TSRA SCT090 BKN110 25/09 A3001 RMK TSB2050 OCNL LTGCG N TS OHD MOV E
  • KBKF: Aurora, Buckley AFB Airport, CO, United States
    KBKF 081850Z 34005KT 10SM -TSRA SCT080 BKN120 BKN150 26/09 A2998 RMK AO2A SLP074
    KBKF 081858Z 34006KT 10SM -TSRA FEW060 SCT100 BKN120 26/09 A2998 RMK AO2A RAB50 TSB47 SLP074 P0000 T02620091
  • KCAO: Clayton, Clayton Municipal Airpark, NM, United States
    KCAO 082014Z AUTO 09015G26KT 7SM -TSRA FEW028 SCT050 BKN095 25/11 A2994 RMK AO2 PK WND 09026/2014 LTG DSNT SW TSB08 P0017 T02500111 $
  • KDYR: Dyersburg, TN, United States
    KDYR 081756Z AUTO 23007KT 9SM -TSRA FEW070 BKN090 24/16 A2995 RMK AO2 LTG DSNT NW TSB56RAB52 SLP145 P0000 6//// T02440156 10256 20189 55009
  • KEIK: Erie, PA, United States
    KEIK 082115Z AUTO 02005KT 4SM -TSRA SCT055 BKN100 BKN120 BKN140 22/15 A2996 RMK AO2 RAB2107 TSB2058 P0002 T02220152
  • KFEW: Francis Warren AFB, WY, United States
    KFEW 081910Z AUTO 14004G17KT 10SM -TSRA FEW041 SCT090 BKN110 18/13 A3007 RMK AO2 RAB00 TSB10 SLP113 $
  • KFLL: Fort Lauderdale/Hollywood, FL, United States
    KFLL 081853Z 21006G16KT 8SM -TSRA SCT035CB BKN055 BKN250 26/23 A2996 RMK AO2 LTG DSNT SW AND NW RAE1754B39 TSB01 SLP144 TS 9SW P0002 T02610228
  • KFLY: Meadow Lake, CO, United States
    KFLY 081955Z AUTO 14024G36KT 10SM -TSRA SCT017 BKN085 OVC110 19/10 A3007 RMK AO2 LTG DSNT ALQDS T01880096
  • KGNB: Granby, CO, United States
    KGNB 081935Z AUTO 32006KT 10SM TSRA SCT085 OVC110 18/M17 A3020 RMK AO2 LTG DSNT ALQS T01761167
    KGNB 082115Z AUTO 23008KT 7SM TSRA BKN070 BKN090 16/M14 A3022 RMK AO2 LTG DSNT ALQS T01581136
  • KGXY: Greeley / Weld, CO, United States
    KGXY 082035Z 33015G19KT 10SM -TSRA OVC060 26/14 A2997 RMK AO2 LTG DSNT NW-NE TSB29RAB34 P0000
  • KHUL: Houlton, Houlton Intl Arpt, ME, United States
    KHUL 082026Z AUTO 26013G22KT 10SM -TSRA SCT017 BKN028 OVC080 16/13 A2951 RMK AO2 LTG DSNT SW RAB22 TSB26 PRESRR P0000 T01610128
    KHUL 082034Z AUTO 24009G19KT 8SM -TSRA FEW019 BKN055 OVC080 15/12 A2952 RMK AO2 RAB22 TSB26 PRESRR P0002 T01500117
  • KHWO: Hollywood, North Perry Airport, FL, United States
    KHWO 081824Z 36021G25KT 2 1/2SM -TSRA FEW018 OVC037 26/23 A3000 RMK AO2 PK WND 06026/1811 WSHFT 1807 LTG DSNT W RAB04 TSB01 P0012 T02610228 $
    KHWO 081856Z 14010G20KT 2SM TSRA BKN013 BKN031 OVC040 25/22 A2998 RMK AO2 LTG DSNT N P0000 T02500217 $
    KHWO 081858Z 13010KT 3SM TSRA BKN015 BKN034 OVC041 26/22 A2998 RMK AO2 LTG DSNT N P0000 T02560217 $
  • KIBM: Kimball, NE, United States
    KIBM 082055Z AUTO 12004KT 10SM -TSRA OVC100 19/13 A3007 RMK AO2 LTG DSNT S THRU W T01870134
  • KLEW: Auburn-Lewiston, ME, United States
    KLEW 081756Z AUTO 25003KT 10SM -TSRA FEW055 BKN075 OVC090 A2957 RMK AO2 LTG DSNT N AND NE TSB30RAB26 SLPNO P0001 60001 57003 FZRANO $
    KLEW 081913Z AUTO 32010KT 10SM TSRA BKN050 BKN070 A2959 RMK AO2 TSB07RAB07 P0001 FZRANO $
  • KLIC: Limon, Limon Municipal Airport, CO, United States
    KLIC 082117Z AUTO 09005KT 8SM -TSRA FEW028 BKN060 OVC100 25/16 A2997 RMK AO2 LTG DSNT ALQDS RAB2059 TSB11 P0000 T02500156
  • KMLT: Millinocket, ME, United States
    KMLT 081821Z AUTO 00000KT 2SM TSRA BR FEW019 BKN046 OVC085 14/13 A2953 RMK AO2 LTG DSNT NE AND S P0019 T01390128
  • KPBI: West Palm Beach, FL, United States
    KPBI 081753Z 14019G25KT 10SM -TSRA SCT015CB BKN031 BKN060 26/24 A2998 RMK AO2 WSHFT 1723 RAB06 TSB18 SLP153 OCNL LTGICCG OHD-N-SE TS OHD-N-SE MOV NE P0032 60032 T02560244 10328 20256 53006 $
    KPBI 081853Z 01010KT 10SM -TSRA SCT027CB SCT055 BKN095 BKN250 26/24 A2998 RMK AO2 LTG DSNT SW-N RAE1758B16 SLP153 FRQ LTGICCCCG OHD-NW-NE TS OHD-NW-NE MOV NE CB DSNT SW P0002 T02560239 $
  • KPQI: Presque Isle, ME, United States
    KPQI 082033Z AUTO 22009KT 7SM TSRA SCT009 BKN014 OVC026 16/15 A2951 RMK AO2 TSB25RAB09 P0012
  • KPSM: Pease AFB/Portsmouth, NH, United States
    KPSM 081811Z 27009G14KT 230V310 7SM -TSRA FEW042 SCT050 BKN090 BKN200 21/13 A2962 RMK AO2A RAB03 TSB11 SLP033
  • LEAB: Albacete / Los Llanos, Spain
    LEAB 081800Z 29016KT 6000 -TSRA FEW010 SCT040CB 15/14 Q1012 NOSIG
    LEAB 081819Z 28012KT 240V340 4200 TSRA FEW010 SCT040CB 15/12 Q1013 NOSIG
    LEAB 081830Z 32010G20KT 7000 -TSRA FEW010 SCT040CB 16/13 Q1013 RERA NOSIG
  • LETL: Tereul, Spain
    LETL 081830Z AUTO 27008KT 210V290 9000 TSRA SCT029 SCT044 //////CB 16/13 Q1013
  • LEVC: Valencia / Aeropuerto, Spain
    LEVC 082030Z 30028G39KT 9999 -TSRA FEW060CB SCT067 20/16 Q1009
  • LFBM: Mont-De-Marsan, France
    LFBM 081800Z AUTO 26007KT 230V290 9999 TSRA FEW037/// BKN046/// BKN070/// //////CB 22/20 Q1009
    LFBM 081800Z AUTO 26007KT 230V290 9999 TSRA FEW037/// BKN046/// BKN070/// ///CB 22/20 Q1009
    LFBM 081830Z AUTO 27008KT 9999 -TSRA SCT016/// BKN023/// BKN041/// //////CB 21/19 Q1009
    LFBM 081830Z AUTO 27008KT 9999 -TSRA SCT016/// BKN023/// BKN041/// ///CB 21/19 Q1009
    LFBM 081900Z AUTO 26010KT 230V290 9999 -TSRA FEW042/// SCT062/// BKN120/// //////CB 21/19 Q1009
    LFBM 081900Z AUTO 26010KT 230V290 9999 -TSRA FEW042/// SCT062/// BKN120/// ///CB 21/19 Q1009
    LFBM 081930Z AUTO 28010KT 9999 TSRA SCT038/// BKN046/// BKN060/// //////CB 19/18 Q1009
    LFBM 081930Z AUTO 28010KT 9999 TSRA SCT038/// BKN046/// BKN060/// ///CB 19/18 Q1009
    LFBM 082030Z AUTO 22005KT 170V270 7000 -TSRA SCT012/// BKN040/// BKN052/// //////CB 19/18 Q1010
    LFBM 082030Z AUTO 22005KT 170V270 7000 -TSRA SCT012/// BKN040/// BKN052/// ///CB 19/18 Q1010
    LFBM 082130Z AUTO 21004KT 160V260 6000 -TSRA FEW024/// BKN060/// BKN076/// //////CB 19/19 Q1010
    LFBM 082130Z AUTO 21004KT 160V260 6000 -TSRA FEW024/// BKN060/// BKN076/// ///CB 19/19 Q1010
  • LFBT: Tarbes / Ossun, France
    LFBT 082130Z AUTO 27011KT 240V300 9999 -TSRA SCT009/// OVC016/// //////CB 17/16 Q1012
    LFBT 082130Z AUTO 27011KT 240V300 9999 -TSRA SCT009/// OVC016/// ///CB 17/16 Q1012
  • LFBZ: Biarritz, France
    LFBZ 081930Z AUTO 27016KT 4400 -TSRA BR OVC006/// //////CB 18/18 Q1011
    LFBZ 081930Z AUTO 27016KT 4400 -TSRA BR OVC006/// ///CB 18/18 Q1011
    LFBZ 082000Z AUTO 28016KT 4100 TSRA BR OVC005/// //////CB 18/18 Q1011
    LFBZ 082000Z AUTO 28016KT 4100 TSRA BR OVC005/// ///CB 18/18 Q1011
    LFBZ 082030Z AUTO 27007KT 240V300 5000 -TSRA BR OVC005/// //////CB 18/18 Q1012
    LFBZ 082030Z AUTO 27007KT 240V300 5000 -TSRA BR OVC005/// ///CB 18/18 Q1012
  • LFLN: Saint-Yan, France
    LFLN 081800Z AUTO 31009KT 9999 -TSRA SCT016/// BKN021/// BKN029/// //////CB 20/18 Q1012
    LFLN 081800Z AUTO 31009KT 9999 -TSRA SCT016/// BKN021/// BKN029/// ///CB 20/18 Q1012
  • LHPA: Papa, Hungary
    LHPA 082045Z 10003KT 9999 -TSRA SCT043CB FEW046TCU BKN083 23/18 Q1009 RESHRA NOSIG RMK BLU
    LHPA 082051Z 10003KT 8000 -TSRA SCT040CB FEW046TCU OVC083 23/19 Q1009 RMK BLU
    LHPA 082115Z VRB01KT 6000 -TSRA SCT040CB FEW046TCU OVC083 22/19 Q1009 NOSIG RMK WHT
  • LKMT: Ostrava / Mosnov, Czech Republic
    LKMT 082130Z 24005KT 190V270 9999 -TSRA FEW028CB BKN047 19/16 Q1008
  • LOWG: Graz-Thalerhof-Flughafen, Austria
    LOWG 081820Z AUTO 02013KT 350V050 9999 -TSRA FEW006 SCT034 BKN040 SCT050CB 19/16 Q1010 RETSRA
  • LOWL: Linz / Hoersching-Flughafen, Austria
    LOWL 081820Z AUTO 32007KT 9999 -TSRA FEW050CB SCT060 24/17 Q1009
    LOWL 081850Z AUTO 28014KT 9999 TSRA FEW032 SCT038 BKN050 SCT050CB 19/18 Q1010
    LOWL 081920Z AUTO 19008KT 9999 -TSRA FEW042 SCT050CB BKN070 18/17 Q1011 RETSRA
  • LSZA: Lugano, Switzerland
    LSZA 081750Z 19007KT 9999 -TSRA SCT031CB 23/20 Q1012
  • LSZG: Grenchen, Switzerland
    LSZG 082050Z AUTO 34007KT 300V020 7000 TSRA FEW033CB SCT037 BKN042 18/16 Q1013 RERA
  • LTAU: Kayseri / Erkilet, Turkey
    LTAU 081750Z 29017KT 7000 TSRA SCT025CB SCT030 16/13 Q1013
    LTAU 081820Z 29023KT 9999 -TSRA SCT025CB SCT030 16/13 Q1014 RETSRA
    LTAU 081850Z 28014KT 9999 -TSRA SCT025CB SCT030 15/13 Q1014
  • LTAZ: Nevsehir, Turkey
    LTAZ 081750Z 22010KT 190V260 9999 -TSRA FEW030CB BKN035 17/12 Q1015 RETS
    LTAZ 081750Z 22010KT 190V260 9999 -TSRA FEW030CB BKN035 17/12 Q1015 RETS RMK RWY29 23013KT
    LTAZ 081820Z 29005KT 250V330 9999 -TSRA FEW030CB BKN035 16/13 Q1015
    LTAZ 081820Z 29005KT 250V330 9999 -TSRA FEW030CB BKN035 16/13 Q1015 RMK RWY29 29008KT 260V320
  • LTCD: Erzincan, Turkey
    LTCD 081750Z 36006KT 330V030 9999 -TSRA FEW025CB SCT035 BKN080 18/13 Q1013 RETS NOSIG
    LTCD 081750Z 36006KT 330V030 9999 -TSRA FEW025CB SCT035 BKN080 18/13 Q1013 RETS NOSIG RMK RWY10 34006KT 280V030
    LTCD 081915Z 16009KT 120V190 9999 -TSRA FEW025CB SCT035 BKN080 17/12 Q1013 NOSIG
    LTCD 081915Z 16009KT 120V190 9999 -TSRA FEW025CB SCT035 BKN080 17/12 Q1013 NOSIG RMK RWY10 VRB05KT
    LTCD 081950Z VRB01KT 9999 -TSRA FEW025CB SCT035 BKN080 17/12 Q1014 NOSIG
    LTCD 081950Z VRB01KT 9999 -TSRA FEW025CB SCT035 BKN080 17/12 Q1014 NOSIG RMK RWY10 25006KT 220V300
  • LTCI: Van, Turkey
    LTCI 081814Z 05008KT 020V100 9999 -TSRA FEW020CB SCT035 BKN090 19/08 Q1016
    LTCI 081828Z 17012KT 9999 -TSRA FEW020CB SCT030 BKN070 19/07 Q1017
    LTCI 081850Z 16005KT 080V240 9999 -TSRA FEW020CB SCT030 BKN070 21/05 Q1016
    LTCI 081912Z 12015KT 9999 -TSRA FEW020CB SCT030 BKN070 19/08 Q1015
  • LTCJ: Batman, Turkey
    LTCJ 082120Z 02006KT 280V040 9999 -TSRA FEW025CB BKN100 24/13 Q1003 RETS NOSIG
    LTCJ 082120Z 02006KT 280V040 9999 -TSRA FEW025CB BKN100 24/13 Q1003 RETS NOSIG RMK RWY20 36006KT 1CB025 1CU040 5AC100
  • LTCW: Hakkari Yuksekova, Turkey
    LTCW 081911Z 30011KT 9000 -TSRA FEW020CB SCT030 BKN080 16/09 Q1021
    LTCW 081950Z 27011KT 9000 -TSRA FEW020CB SCT030 BKN080 15/10 Q1020
  • MGHT: Huehuetenango, Guatemala
    MGHT 082100Z 27008KT 9999 -TSRA FEW030 SCT032CB SCT200 24/18 CB/TS/W CB/ SBR STN
  • MHPL: Puerto Lempira, Honduras
    MHPL 082100Z 00000KT 5000 -TSRA SCT018 FEW026CB SCT080 26/23
  • MKJS: Montego Bay / Sangster, Jamaica
    MKJS 081800Z 07016KT 9999 -TSRA BKN018 SCT020CB 28/26 Q1013
    MKJS 081940Z 09013KT 9999 -TSRA BKN018 BKN020CB 27/25 Q1013
    MKJS 082000Z 11009KT 9999 -TSRA BKN018 BKN020CB 27/25 Q1013 RERA
  • MNMG: Managua A. C. Sandino, Nicaragua
    MNMG 081846Z 13006KT 9000 TSRA FEW020CB SCT023 CB/E/SE/S/NW
    MNMG 081900Z 11004KT 7000 -TSRA FEW020CB SCT023 29/27 Q1012 A2990 CB/E/SE/S/W/N
    MNMG 082000Z 16006KT 7000 -TSRA FEW020CB SCT023 27/26 Q1011 A2986 CB/NE/E/SE/S/W/NW
  • MROC: Juan Santamaria, Costa Rica
    MROC 082133Z 23007KT 9999 -TSRA SCT015CB BKN040 24/22 A3007 NOSIG
  • MRPV: Tobias Bolanos International, Costa Rica
    MRPV 082141Z 31004KT 9999 TSRA FEW010 BKN020CB SCT090 23/22 A3007 NOSIG
  • MSLP: El Salvador Intl. Airport / Comalapa, El Salvador
    MSLP 082143Z 18005KT 120V240 9999 3000NE TSRA SCT015 BKN020 FEW033CB 30/27 Q1010
  • MSSA: Santa Ana / El Palmar, El Salvador
    MSSA 082050Z 00000KT 9999 -TSRA SCT033 FEW037CB 29/22 Q1017 A3005
  • MWCR: Owen Roberts Airport Grand Cayman, Cayman Islands
    MWCR 081838Z 04011KT 6000 TSRA BKN010CB 26/26 Q1014
    MWCR 081900Z 06014KT 2000 TSRA BKN010CB 26/26 Q1014
    MWCR 082000Z 05017G27KT 2000 TSRA BKN010CB 26/26 Q1013
    MWCR 082030Z 06017KT 5000 TSRA FEW010CB OVC070 26/26 Q1013
  • MYNN: Nassau Airport, Bahamas, The
    MYNN 081927Z 03005KT 350V100 9999 -TSRA SCT015CB BKN016TCU BKN200 25/24 A3000 RETSRA
    MYNN 082000Z 15009KT 9999 TSRA SCT012CB BKN014CB OVC035 25/24 A3002
    MYNN 082100Z 23007KT 130V290 1600 TSRA SCT012CB BKN014TCU OVC035 25/24 A3003
  • OITL: Ardabil, Iran
    OITL 081858Z 36008KT 9000 TSRA BKN040CB SCT080 BKN160 17/12 Q1018
    OITL 081900Z 36008KT 9000 TSRA BKN040CB SCT080 BKN160 17/12 Q1018
  • ROIG: Ishigakijima, Japan
    ROIG 081900Z AUTO 21009KT 9999 -TSRA FEW009 SCT011 BKN015 //////CB 27/27 Q1007
    ROIG 081903Z AUTO 21009KT 2300 -TSRA BR SCT007 SCT011 BKN015 //////CB 27/27 Q1007 RMK A2976 TS 20KM NW-NE MOV SE TCU 5KM W MOV E
    ROIG 081908Z AUTO 22010KT 9999 -TSRA FEW007 SCT011 BKN015 //////CB 27/27 Q1007 RMK A2976 TS 10KM W AND NW-NE MOV N
  • RORS: Shimoji-Shima Island, Japan
    RORS 082127Z AUTO 28010KT 9999 -TSRA FEW007 SCT023 BKN029 //////CB 27/27 Q1008 RMK A2979 TS 15KM W MOV NE TCU FM 25KM NW TO 30KM N MOV NE
  • SBBV: Boa Vista, Boa Vista Intl, Brazil
    SBBV 082027Z 18014KT 2000 TSRA SCT010 SCT030 FEW035CB BKN100 25/23 Q1012
    SBBV 082100Z 04007KT 7000 -TSRA FEW010 SCT030 FEW035CB BKN100 24/24 Q1012 RERA
  • SBUA: Sao Gabriel Da Cachoeira, Brazil
    SBUA 081900Z 16006KT 3000 TSRA BR BKN008 FEW035CB 23/23 Q1014
  • SKLT: Leticia / Vasquez Cobo, Colombia
    SKLT 081930Z 28004KT 7000 -TSRA SCT010CB 26/24 Q1011 RMK CB/NW
    SKLT 082000Z 05006KT 8000 0500N TSRA BKN010CB 25/24 Q1012 RMK CB/W
    SKLT 082005Z 06008KT 1000 TSRA BKN010CB 24/24 Q1012 RMK CB/W
    SKLT 082100Z VRB02KT 9999 -TSRA SCT013CB 24/24 Q1011RMK CB/S
  • SKSM: Santa Marta / Simon Bolivar, Colombia
    SKSM 082000Z 02005KT 9000 -TSRA SCT020CB SCT070 31/27 Q1011 RMK CB/E/SE
  • SKUI: Quibdo / El Carano, Colombia
    SKUI 081900Z 13007KT 4000 -TSRA FEW008CB BKN009 OVC080 25/24 Q1012 RMK CB/SE METAR SKMZ 081900Z VRB02KT 7000 -DZ SCT028 BKN060 19/17 Q1028
    SKUI 082000Z 18010KT 1500 TSRA FEW005CB BKN005 OVC080 23/23 Q1011 RMK CB/SW
    SKUI 082020Z 15006KT 4000 -TSRA FEW008CB SCT009 OVC080 23/23 Q1010 RMK CB/SW
  • SMJP: Johan A. Pengel, Suriname
    SMJP 082100Z 14010KT 9999 -TSRA SCT008 FEW012CB SCT018 26/24 Q1013
  • SPQT: Iquitos, Peru
    SPQT 082132Z 14007KT 090V210 6000 TSRA BKN006 FEW020CB BKN100 25/23 Q1013
    SPQT 082143Z 15008KT 100V210 2000 TSRA BKN005 FEW020CB BKN100 25/22 Q1013
  • TTCP: Crown Pt./ Scarborou, Trinidad and Tobago
    TTCP 081815Z 10011KT 8000 -TSRA VCSH FEW008CB SCT014 25/24 Q1013 NOSIG RMK CB NW S VCSH ALQDS
    TTCP 081815Z 10011KT 8000 -TSRA VCSH FEW008CB SCT014 25/24 Q1015 NOSIG RMK CB NW S VCSH ALQDS
    TTCP 081815Z 10011KT 8000 -TSRA VCSH FEW008CB SCT014 25/24 Q1015 RMK CB NW S VCSH ALQDS
  • UBBL: Lenkoran Airport, Azerbaijan
    UBBL 082000Z VRB02KT 9999 -TSRA SCT040CB BKN070 23/20 Q1013 NOSIG
  • VABB: Bombay / Santacruz, India
    VABB 082030Z 32005KT 1800 -TSRA SCT018 FEW030CB BKN090 29/27 Q1003
    VABB 082100Z 33004KT 1800 -TSRA SCT018 FEW030CB BKN090 30/28 Q1003
  • VDSV: Sihanoukville, Cambodia
    VDSV 082000Z /////KT 5000 TSRA SCT015 FEW017CB ///// Q//// RMK CB
    VDSV 082030Z /////KT 5000 TSRA SCT015 FEW017CB ///// Q//// RMK CB
    VDSV 082130Z /////KT 5000 TSRA SCT015 FEW017CB ///// Q//// RMK CB
  • VVPQ: Phu Quoc, Viet Nam
    VVPQ 082100Z 25007KT 8000 -TSRA SCT015 FEW017CB SCT040 26/24 Q1006 NOSIG
    VVPQ 082130Z 29019KT 8000 -TSRA SCT015 FEW017CB SCT040 26/24 Q1006
  • WARR: Juanda, Indonesia
    WARR 081800Z 12005KT 4000 -TSRA SCT020CB 26/24 Q1011 NOSIG
  • WIMM: Medan / Polonia, Indonesia
    WIMM 081900Z 31005KT 6000 -TSRA FEW017CB BKN018 26/26 Q1009 NOSIG RMK CB TO NW N
    WIMM 081930Z 14003KT 3000 -TSRA FEW017CB BKN018 26/26 Q1008 NOSIG RMK CB TO NE
    WIMM 082000Z 14008KT 3000 -TSRA FEW016 BKN017 26/26 Q1008 NOSIG RMK CB TO NW NE
    WIMM 082030Z 23005KT 3000 -TSRA FEW016CB BKN017 26/26 Q1008 NOSIG RMK CB TO NW NE
    WIMM 082100Z 10003KT 5000 -TSRA FEW017CB SCT018 26/25 Q1008 NOSIG RMK CB TO NW
  • WMKA: S Abdul Halim, Malaysia
    WMKA 082000Z VRB02KT 8000 -TSRA FEW017CB SCT028 26/24 Q1008
  • WMKB: Buttersworth, Malaysia
    WMKB 082000Z 11003KT 7000 -TSRA FEW010 FEW017CB SCT024 27/24 Q1008
    WMKB 082100Z 10003KT 040V170 6000 -TSRA FEW010 FEW017CB SCT024 26/23 Q1009 NOSIG
  • WMKP: Penang / Bayan Lepas, Malaysia
    WMKP 081900Z VRB03KT 6000 -TSRA FEW010 FEW017CB SCT025 28/25 Q1009 NOSIG
    WMKP 081930Z VRB02KT 8000 -TSRA FEW010 FEW017CB SCT025 28/25 Q1008 NOSIG
    WMKP 082115Z VRB02KT 6000 -TSRA FEW010 FEW017CB SCT025 26/23 Q1008 RETSRA NOSIG
    WMKP 082130Z 11003KT 060V150 6000 -TSRA FEW010 FEW017CB SCT025 25/23 Q1008 NOSIG
  • ZYCC: Changchun, China
    ZYCC 081800Z 25004MPS 220V280 5000 -TSRA SCT026CB BKN026 15/13 Q1004 NOSIG


0 stations reporting blizzard conditions

0 stations reporting near-blizzard conditions


2 stations reporting visibility of zero

  • KMWN: Mount Washington, NH, United States
    KMWN 081747Z 28044G48KT 0SM -SHRA FG VV000 04/04 RMK 60027 10048 20037
    KMWN 081954Z 29042G51KT 0SM -SHRA FG VV000 04/04 RMK
    KMWN 082055Z 29040G53KT 0SM -SHRA FG VV000 05/05 RMK
  • LIVP: Paganella, Italy
    LIVP 082055Z 22012KT 0000 FG VV/// 10/09 Q1020
    LIVP 082055Z 22012KT 0000 FG VV/// 10/09 Q1020 RMK MON INVIS VAL INVIS VIS MIN 0000
11 stations reporting visibility 1/8 mile or less, but not zero

  • ETHC: Celle, Germany [200meters]
    ETHC 082020Z AUTO 31006KT 0200 // ////// 13/09 Q1009 ///
    ETHC 082120Z AUTO 29004KT 0200 // ////// 12/09 Q1010 ///
  • KAVX: Avalon, Catalina Airport, CA, United States [<1/4mile]
    KAVX 081751Z AUTO 12004KT M1/4SM FG VV001 14/14 A2997 RMK AO2 RAB17E26 SLP143 P0000 60000 T01390139 10139 20117 51012
    KAVX 081851Z AUTO 00000KT M1/4SM FG VV001 14/14 A2998 RMK AO2 RAB38E47 SLP145 P0000 T01440144
    KAVX 081951Z AUTO 26004KT M1/4SM FG VV001 13/13 A2998 RMK AO2 SLP146 T01330133
    KAVX 082051Z AUTO 26006KT M1/4SM FG VV002 14/14 A2998 RMK AO2 SLP145 60000 T01390139 50001
  • KMWN: Mount Washington, NH, United States [1/16mile]
    KMWN 081850Z 29043G50KT 1/16SM -SHRA FG VV000 04/04 RMK
  • NZCH: Christchurch, New Zealand [200meters]
    NZCH 081800Z AUTO 03004KT 0200 R02/0800N R20/0700D FG VV002 06/06 Q1015
  • PAAD: Point Thomson Airstrip Deadhorse, AK, United States [<1/4mile]
    PAAD 081755Z AUTO 30004KT M1/4SM FG OVC002 01/00 A3035 RMK AO2 T00060000 10007 20000
    PAAD 081815Z AUTO 29004KT M1/4SM FG OVC002 01/00 A3034 RMK AO2 T00070000
  • RJCK: Kushiro Airport, Japan [100meters]
    RJCK 081800Z AUTO 00000KT 0100 R35/0600N FG OVC001 13/13 Q1017
    RJCK 082000Z AUTO 17003KT 0100 R35/0225N FG OVC001 13/13 Q1017
    RJCK 082100Z AUTO VRB01KT 0200 R35/0200N FG OVC001 14/14 Q1017
  • SAZM: Mar Del Plata Aerodrome, Argentina [200meters]
    SAZM 081800Z 05011KT 0200 R13/0300 FG OVC002 13/13 Q1012
    SAZM 081900Z 06006KT 0200 R13/0400 FG OVC002 13/13 Q1011
  • UHHH: Habarovsk, Russia [200meters]
    UHHH 081830Z 03003MPS 0200 R05L/0400N R05R/0500N FG VV002 11/11 Q1005 R88/290045 NOSIG RMK QBB060 QFE748/0997
  • YMLT: Launceston Airport, Australia [150meters]
    YMLT 082000Z AUTO 21006KT 0150 FG OVC001 02/02 Q1012 RF00.0/000.0
    YMLT 082030Z AUTO 21007KT 0150 FG OVC001 02/02 Q1012 RF00.0/000.2
  • YSDU: Dubbo, Australia [100meters]
    YSDU 081800Z AUTO 26004KT 0200 FG OVC001 06/06 Q1018 RF00.0/000.2
    YSDU 081800Z AUTO 26004KT 0200 FG OVC001 06/06 Q1018 RF00/0/000/2
    YSDU 081930Z AUTO 00000KT 0100 FG OVC001 06/06 Q1019 RF00.0/000.2
    YSDU 081930Z AUTO 00000KT 0100 FG OVC001 06/06 Q1019 RF00/0/000/2
    YSDU 082000Z AUTO 26005KT 0100 FG OVC001 06/05 Q1019 RF00.0/000.2
    YSDU 082000Z AUTO 26005KT 0100 FG OVC001 06/05 Q1019 RF00/0/000/2
    YSDU 082030Z AUTO 25004KT 0150 FG OVC001 05/05 Q1019 RF00.0/000.2
    YSDU 082030Z AUTO 25004KT 0150 FG OVC001 05/05 Q1019 RF00/0/000/2
    YSDU 082100Z AUTO 00000KT 0100 FG OVC001 05/05 Q1019 RF00.0/000.2
    YSDU 082100Z AUTO 00000KT 0100 FG OVC001 05/05 Q1019 RF00/0/000/2
  • YSTW: Tamworth Airport, Australia [150meters]
    YSTW 081855Z AUTO 28003KT 0200 FG BKN001 08/08 Q1018 RF00.0/000.4
    YSTW 081900Z AUTO 28003KT 0150 FG BKN001 08/08 Q1019 RF00.0/000.4
    YSTW 081930Z AUTO 00000KT 0150 FG BKN001 06/06 Q1019 RF00.0/000.4
    YSTW 082028Z AUTO 05003KT 0200 FG BKN001 07/06 Q1019 RF00.0/000.4
    YSTW 082030Z AUTO 06004KT 0150 FG BKN001 07/07 Q1019 RF00.0/000.4
0 stations reporting visibility 75 miles or greater

3 stations reporting visibility 50-74 miles

  • CYQH: Watson Lake, Y. T., Canada [50miles]
    CYQH 082000Z 12008KT 50SM FEW035 FEW230 18/04 A3020 RMK CU1CI1 SLP239 DENSITY ALT 2800FT
  • CYQL: Lethbridge, Alta., Canada [60miles]
    CYQL 081800Z 05006KT 360V070 60SM FEW070 BKN085 18/00 A3004 RMK CU1AC5 SLP175 DENSITY ALT 4000FT
    CYQL 081900Z 05011G18KT 310V060 60SM FEW070 BKN085 19/02 A3004 RMK CU1AC6 SLP176 DENSITY ALT 4100FT
    CYQL 082000Z 02015KT 60SM FEW060 BKN080 17/02 A3006 RMK CU1AC6 SLP183 DENSITY ALT 3900FT
    CYQL 082100Z 02018KT 60SM FEW055 BKN080 16/04 A3008 RMK CU2AC4 SLP190 DENSITY ALT 3800FT
  • KEDW: Edwards AFB, CA, United States [50miles]
    KEDW 081755Z 25011KT 50SM FEW200 32/06 A2983 RMK AO2A SLP075 T03230057 10323 20190 54000
    KEDW 081855Z 22009KT 50SM FEW200 34/05 A2983 RMK AO2A SLP075 T03360052
    KEDW 081955Z 23012KT 50SM FEW200 36/06 A2982 RMK AO2A SLP070 T03550058
    KEDW 082042Z 24019G25KT 50SM FEW200 35/06 A2981 RMK AO2A SLP068
    KEDW 082055Z 23018G21KT 50SM FEW200 35/06 A2981 RMK AO2A SLP068 T03490062 57005


0 stations reporting aurora

0 stations reporting solar/lunar eclipse


0 stations reporting inside a hurricane eye

0 stations reporting aircraft mishap

15 stations reporting bird hazard on the runway

  • SPCL: Pucallpa, Peru
    SPCL 081800Z 00000KT 9999 BKN022 SCT100 32/22 Q1016 RMK BIRD HAZARD RWY 02/20 PP010
    SPCL 081900Z 15005KT 9999 BKN025 32/22 Q1014 RMK BIRD HAZARD RWY 02/20 PP010
    SPCL 082000Z VRB02KT 9999 SCT025 32/21 Q1013 RMK BIRD HAZARD RWY 02/20 PP010
    SPCL 082100Z 13003KT 9999 SCT020 32/22 Q1013 RMK BIRD HAZARD RWY 02/20 PP010
  • SPHI: Chiclayo, Peru
    SPHI 081800Z 18014KT CAVOK 23/16 Q1016 RMK BIRD HAZARD RWY 19/01 PP000
    SPHI 081900Z 18014KT CAVOK 23/16 Q1015 RMK BIRD HAZARD RWY 19/01 PP000
    SPHI 082000Z 19017KT CAVOK 23/16 Q1013 RMK BIRD HAZARD RWY 19/01 PP000
    SPHI 082100Z 19016KT CAVOK 22/16 Q1013 RMK BIRD HAZARD RWY 19/01 PP000
  • SPHO: Ayacucho, Peru
    SPHO 081800Z VRB03KT CAVOK 21/M11 Q1032 RMK BIRD HAZARD RWY 02/20 PP000
    SPHO 081900Z VRB02KT CAVOK 22/M12 Q1030 RMK BIRD HAZARD RWY 02/20 PP000
    SPHO 082000Z VRB04KT CAVOK 23/M13 Q1029 RMK BIRD HAZARD RWY 02/20 PP000
    SPHO 082100Z 15003KT 070V220 CAVOK 23/M14 Q1028 RMK BIRD HAZARD RWY 02/20 PP000
  • SPHY: Andahuayla, Peru
    SPHY 081800Z 01008KT CAVOK 18/06 Q1037 RMK BIRD HAZARD RWY03/21 PP000
    SPHY 081900Z 01007KT CAVOK 19/08 Q1037 RMK BIRD HAZARD RWY03/21 PP000
  • SPJC: Lima/J Chavez, Peru
    SPJC 081800Z 19010KT 9999 BKN013 18/14 Q1017 NOSIG RMK BIRD HAZARD RWY 16 PP000
    SPJC 081900Z 17010KT 9999 BKN013 18/14 Q1016 NOSIG RMK BIRD HAZARD RWY 16 PP000
    SPJC 082100Z 18012KT 9999 BKN013 18/14 Q1015 NOSIG RMK BIRD HAZARD RWY 16 PP000
  • SPJE: Shumba, Peru
    SPJE 081800Z 27005KT 9999 FEW040 32/20 Q1017 RMK BIRD HAZARD RWY 16/34 PP000
    SPJE 081900Z 28006KT 9999 SCT040 33/19 Q1016 RMK BIRD HAZARD RWY 16/34 PP000
    SPJE 082000Z 32005KT 9999 ST040 33/18 Q1015 RMK BIRD HAZARD RWY 16/34 PP000
    SPJE 082100Z 02008KT 9999 BKN050 31/19 Q1014 RMK TX34.4 BIRD HAZARD RWY 16/34 PP000
  • SPJJ: Jauja, Peru
    SPJJ 081800Z 10006KT CAVOK 18/01 Q1036 RMK BIRD HAZARD RWY13/31 PP000
  • SPJL: Juliaca, Peru
    SPJL 081800Z 09006KT 040V140 CAVOK 16/M18 Q1039 RMK BIRD HAZARD RWY 12/30 PP000
    SPJL 081900Z VRB06KT CAVOK 17/M19 Q1038 RMK BIRD HAZARD RWY 12/30 PP000
    SPJL 082000Z VRB05KT CAVOK 17/M20 Q1037 RMK BIRD HAZARD RWY 12/30 PP000
    SPJL 082100Z VRB03KT CAVOK 17/M21 Q1036 RMK BIRD HAZARD RWY 12/30 PP000
  • SPME: Tumbes, Peru
    SPME 081800Z 34009KT 9999 SCT015 28/23 Q1013 RMK BIRD HAZARD RWY 32/14 PP000
    SPME 081900Z 33010KT 9999 SCT015 28/21 Q1013 RMK BIRD HAZARD RWY 32/14 PP000
    SPME 082000Z 34008KT 9999 SCT015 27/21 Q1012 RMK BIRD HAZARD RWY 32/14 PP000
    SPME 082100Z 34007KT 9999 FEW015 27/21 Q1012 RMK BIRD HAZARD RWY 32/14 PP000
  • SPMS: Yurimaguas, Peru
    SPMS 081800Z 16002KT 9999 FEW025 SCT100 32/25 Q1015 RMEK BIRD HAZARD RWY 09/27 PP000
    SPMS 081900Z 12003KT 9999 FEW025 SCT100 32/24 Q1015 RMK BIRD HAZARD RWY 09/27 PP000
  • SPSO: Pisco, Peru
    SPSO 081800Z 25004KT 9000 OVC012 18/16 Q1017 RMK BIRD HAZARD RWY 22/04 PP000
    SPSO 081900Z 26003KT 230V310 9999 OVC011 18/16 Q1017 RMK BIRD HAZARD RWY 22/04 PP000
    SPSO 082000Z 27004KT 240V300 9999 BKN013 18/16 Q1016 RMK BIRD HAZARD RWY 22/04 PP000
    SPSO 082100Z 26005KT 9999 BKN013 19/16 Q1015 RMK BIRD HAZARD RWY 22/04 PP000
  • SPTU: Puerto Maldonado, Peru
    SPTU 081800Z VRB02KT 9999 SCT015 32/21 Q1015 RMK BIRD HAZARD RWY 01/19 PP000
    SPTU 081900Z 32003KT 250V360 9999 SCT015 32/21 Q1013 RMK BIRD HAZARD RWY 01/19 PP000
    SPTU 082000Z 31004KT 250V020 9999 FEW020 32/20 Q1013 RMK BIRD HAZARD RWY 01/19 PP000
    SPTU 082100Z 30004KT 270V330 CAVOK 31/20 Q1012 RMK BIRD HAZARD RWY 01/19 PP000
  • SPUR: Piura, Peru
    SPUR 081800Z 19008KT CAVOK 26/16 Q1015 RMK BIRD HAZARD RWY 19/01 PP000
    SPUR 081900Z 18012KT CAVOK 28/17 Q1014 RMK BIRD HAZARD RWY 19/01 PP000
    SPUR 082000Z 20011KT CAVOK 28/17 Q1013 RMK BIRD HAZARD RWY 19/01 PP000
    SPUR 082000Z 20011KT CAVOK 29/17 Q1013 RMK BIRD HAZARD RWY 19/01 PP000
    SPUR 082100Z 20010KT CAVOK 29/17 Q1012 RMK BIRD HAZARD RWY 19/01 PP000
  • SPYL: Talara, Peru
    SPYL 081800Z /////KT CAVOK 27/18 Q1014 RMK BIRD HAZARD RWY 17/35 PP000
    SPYL 081900Z /////KT CAVOK 26/18 Q1013 RMK BIRD HAZARD RWY 17/35 PP000
    SPYL 082000Z /////KT CAVOK 26/18 Q1012 RMK BIRD HAZARD RWY 17/35 PP000
    SPYL 082100Z /////KT CAVOK 25/18 Q1012 RMK TX28.0 BIRD HAZARD RWY 17/35 PP000
  • SPZO: Cuzco, Peru
    SPZO 081800Z VRB09KT 9999 NSC 21/M20 Q1034 NOSIG RMK BIRD HAZARD RWY 10/28 PP000
    SPZO 081830Z 02010KT 350V070 9999 NSC 21/M23 Q1034 NOSIG RMK BIRD HAZARD RWY 10/28
    SPZO 081900Z 05008KT 350V080 9999 NSC 21/M22 Q1033 NOSIG RMK BIRD HAZARD RWY 10/28 PP000
    SPZO 081930Z 04007KT 350V120 9999 NSC 22/M20 Q1033 NOSIG RMK BIRD HAZARD RWY 10/28
    SPZO 082000Z 05007KT 340V100 9999 NSC 21/M20 Q1032 NOSIG RMK BIRD HAZARD RWY 10/28 PP000
    SPZO 082030Z 01006KT 340V040 9999 NSC 21/M18 Q1032 NOSIG RMK BIRD HAZARD RWY 10/28
    SPZO 082100Z VRB05KT 9999 NSC 21/M18 Q1032 NOSIG RMK BIRD HAZARD RWY 10/28 PP000
    SPZO 082130Z 02008KT 360V060 9999 NSC 20/M17 Q1032 NOSIG RMK BIRD HAZARD RWY 10/28
0 stations reporting volcanic ash

1 station reporting ice crystals/diamond dust

  • NZSP: Amundsen-Scott Stn, Antarctica
    NZSP 081750Z 09007KT 9999 IC FEW010 M65/ A2830 RMK CLN AIR 07010KT ALL WNDS GRID
0 stations reporting blowing spray

7 stations reporting dust or duststorm

  • DAOR: Bechar, Algeria
    DAOR 081800Z 23020KT 1500 BLDU FEW030CB FEW033TCU SCT100 34/// Q1012
    DAOR 081900Z 22021KT 2000 BLDU FEW033TCU SCT040 34/// Q1012
    DAOR 082000Z 23016KT 2000 BLDU FEW040 SCT100 33/// Q1012
    DAOR 082100Z 22017KT 2000 BLDU FEW040 SCT100 32/// Q1013
  • DRZA: Agadez, Niger
    DRZA 081800Z 28010KT 2000 DU NSC 39/15 Q1010
  • GAKD: Kayes, Mali
    GAKD 081800Z 27010KT 230V310 2000 DU SCT030 FEW033CB 37/20 Q1010
  • GOSP: Podor, Senegal
    GOSP 081800Z 32004KT 4000 DU NSC 36/18 Q1008
    GOSP 081900Z 32004KT 4000 DU NSC 36/18 Q1009
    GOSP 082100Z 32002KT 4000 DU NSC 34/18 Q1011
  • MMMX: Mexico City / Licenci, Mexico
    MMMX 082140Z 14015KT 7SM SCT020TCU BKN080 27/08 A3022 NOSIG RMK 8/230 HZY CI DSNT CB ESE AND SW BLDU
  • MMPE: Puerto Penasco International, Mexico
    MMPE 081840Z 14020KT 10SM SCT200 33/08 A2980 RMK 8/002 BLDU
    MMPE 081941Z 15020KT 10SM SCT200 33/08 A2979 RMK 8/008 BLDU QUAD 4
    MMPE 082040Z 21015KT 10SM SCT200 34/04 A2978 RMK 8/008 BLDU QUAD 4
  • PABI: Delta Junction/Ft Greely, AK, United States
    PABI 081953Z 12022G33KT 10SM FEW080 FEW160 OVC200 21/M01 A2997 RMK AO2 PK WND 10035/1934 SLP148 CIG THN LGT FU ALQDS BLDU VC W-E ACSL DSNT S-SW T02111006
    PABI 082053Z 11022G34KT 10SM FEW080 FEW160 OVC200 23/M02 A2996 RMK AO2 PK WND 12038/2029 SLP142 CIG THN LGT FU ALQDS BLDU VC SW-E ACSL DSNT SW T02281017 56017
3 stations reporting sand or sandstorm

  • DAOY: El Bayadh, Algeria
    DAOY 081800Z 20020KT 1500 BLSA SCT023 SCT233 30/M05 Q1014
    DAOY 081900Z 20020KT 2000 BLSA SCT026 SCT233 29/M04 Q1014
    DAOY 082000Z 20016KT 2000 BLSA SCT023 SCT233 28/M04 Q1015
  • DAUG: Ghardaia, Algeria
    DAUG 081946Z 23026G45KT 190V270 0800 BLSA BKN040 SCT100 38/05 Q1013
  • GQNO: Nouakchott-Oumtounsy Airport, Mauritania
    GQNO 081800Z 33023KT 3500 BLSA NSC 27/18 Q1008 NOSIG
    GQNO 081830Z 33022KT 3500 BLSA NSC 28/18 Q1009 NOSIG
    GQNO 081900Z 33021KT 3500 BLSA NSC 27/18 Q1009 NOSIG
    GQNO 081930Z 33021KT 4500 BLSA NSC 26/19 Q1009 NOSIG
    GQNO 082000Z 33019KT 4500 BLSA NSC 25/19 Q1009 NOSIG
    GQNO 082030Z 33020KT 4500 BLSA NSC 25/19 Q1010 NOSIG
    GQNO 082100Z 33019KT 4500 BLSA NSC 25/19 Q1010 NOSIG
    GQNO 082130Z 33018KT 4500 BLSA NSC 25/20 Q1010 NOSIG
1 station reporting well-developed dust/sand whirls

  • KIWA: Mesa, Williams Gateway Airport, AZ, United States
    KIWA 082055Z 23010G15KT 10SM PO CLR 39/04 A2981
15 stations reporting smoke

  • AYMH: Mount Hagen, Papua New Guinea
    AYMH 082100Z VRB03KT 9999 FUHZ BKN040 16/16 Q1024
    AYMH 082100Z VRB03KT 9999 FUHZ BKN040 16/16 Q1024=
  • CYCQ: Chetwynd Airport, Canada
    CYCQ 081800Z 02003KT 350V100 15SM FEW030 OVC035 11/04 A3025 RMK CU1SC7 FU DIST VLY W SLP264
    CYCQ 081900Z VRB04KT 15SM BKN035 OVC045 12/03 A3025 RMK SC5SC3 FU DIST VLY W SLP262
    CYCQ 082000Z 03006KT 360V080 35SM OVC045 13/02 A3024 RMK SC8 FU DIST MT W SLP257
    CYCQ 082100Z 03009KT 350V070 35SM OVC045 13/02 A3024 RMK SC8 FU DIST MT W SLP258
  • KFPR: Fort Pierce, St. Lucie County Intl Arpt, FL, United States
    KFPR 081753Z 08009KT 10SM FU BKN050 33/23 A2994 RMK AO2 SLP137 T03280233 10361 20250 58005
    KFPR 081853Z 10013KT 10SM FU FEW090 32/23 A2993 RMK AO2 SLP134 T03220233
    KFPR 081953Z 11013KT 10SM FU CLR 33/23 A2993 RMK AO2 SLP133 T03280228
  • KNFL: Fallon, Naval Air Stn, NV, United States
    KNFL 081756Z COR VRB03KT 10SM FEW000 31/03 A2992 RMK AO2 SLP105 FU FEW000 T03060028 10311 20144 58007
    KNFL 081756Z COR VRB03KT 10SM FEW000 BKN250 31/03 A2992 RMK AO2 SLP105 FU FEW000 T03060028 10311 20144 58007
  • KOMN: Ormond Beach, FL, United States
    KOMN 081750Z 24005KT 7SM FU SCT048 SCT060 BKN070 34/23 A2992
  • MMML: Mexicali Intl Arpt, Mexico
    MMML 082051Z 23003KT 10SM SKC 40/06 A2971 RMK SLP061 57017 903 ISOL CI FU NW
  • MMTG: Tuxtla Gutierrez, Chis., Mexico
    MMTG 081749Z 00000KT 2 1/2SM FU HZ SCT018 BKN070 29/22 A3001 RMK SLP120 54001 924 8/570 CU FRMG
    MMTG 081840Z 00000KT 3SM FU HZ SCT015 BKN070 29/22 A3000 RMK 8/570 VSBY 2SM NE/NW
    MMTG 081952Z 32006KT 3SM FU HZ SCT030TCU BKN080 30/21 A2997 RMK 8/270 CB DST N/E
    MMTG 082045Z 35009KT 3SM FU HZ SCT030TCU BKN080 BKN300 29/22 A2996 RMK SLP105 57015 936 8/271 CBS FRMG NW/NE
  • MZBZ: Goldston Intl. Airport, Belize
    MZBZ 081900Z 11006KT 9999 SCT021 33/28 A2985 Q1010 NOSIG DIST CBTOP-NW FU
    MZBZ 082000Z 09005KT 9999 FEW021 33/28 A2982 Q1010 NOSIG RMK DIST CBTOP-NW/SW FU
    MZBZ 082100Z 10005KT 9999 FEW022 32/28 A2979 Q1009 NOSIG RMK DIST CBTOP-SW FU
  • OPFA: Faisalabad, Pakistan
    OPFA 082055Z 00000KT 4000 FU NSC 28/19 Q1002 NOSIG
  • OPMT: Multan, Pakistan
    OPMT 081800Z 00000KT 4000 FU NSC 31/19 Q1002 NOSIG
    OPMT 081900Z 00000KT 4000 FU NSC 30/20 Q1002 NOSIG
    OPMT 082000Z 00000KT 4000 FU NSC 29/19 Q1001 NOSIG
    OPMT 082100Z 00000KT 4000 FU NSC 29/18 Q1000 NOSIG
  • PABI: Delta Junction/Ft Greely, AK, United States
    PABI 081753Z 10020G28KT 10SM FEW160 OVC200 18/02 A3001 RMK AO2 PK WND 09028/1654 SLP158 CIG THN LGT FU ALQDS T01830022 10183 20117 58014
    PABI 081853Z 12023G32KT 10SM FEW080 FEW160 OVC200 19/02 A2999 RMK AO2 PK WND 12032/1803 SLP152 CIG THN LGT FU ALQDS ACSL DSNT S-SW T01940017
    PABI 081953Z 12022G33KT 10SM FEW080 FEW160 OVC200 21/M01 A2997 RMK AO2 PK WND 10035/1934 SLP148 CIG THN LGT FU ALQDS BLDU VC W-E ACSL DSNT S-SW T02111006
    PABI 082053Z 11022G34KT 10SM FEW080 FEW160 OVC200 23/M02 A2996 RMK AO2 PK WND 12038/2029 SLP142 CIG THN LGT FU ALQDS BLDU VC SW-E ACSL DSNT SW T02281017 56017
  • SLPS: Puerto Suarez, Bolivia
    SLPS 081800Z 09007KT 5000 FU NSC 36/20 Q1015
  • UAII: Shymkent, Kazakhstan
    UAII 081800Z 13003MPS 5000 FU NSC 23/14 Q1008 NOSIG RMK QFE721/0961
  • UTSA: Navoi, Uzbekistan
    UTSA 081900Z 17004KT 4400 FU NSC 24/08 Q1008 R07/CLRD70 NOSIG
  • VAAH: Ahmadabad, India
    VAAH 081800Z 19010KT 4000 FU NSC 35/21 Q1002 NOSIG
    VAAH 081830Z 22008KT 4000 FU NSC 35/20 Q1002 NOSIG
    VAAH 081900Z 23008KT 4000 FU NSC 34/20 Q1002 NOSIG
    VAAH 081930Z 22008KT 4000 FU NSC 34/20 Q1002 NOSIG
    VAAH 082000Z 22008KT 4000 FU NSC 33/20 Q1002 NOSIG
    VAAH 082030Z 26005KT 4000 FU NSC 33/21 Q1002 NOSIG
    VAAH 082100Z 28003KT 4000 FU NSC 33/21 Q1003 NOSIG
    VAAH 082130Z 27004KT 4000 FU NSC 32/21 Q1003 NOSIG


Stations falling into 5 or more extreme categories

Stations falling into 4 extreme categories

Stations falling into 3 extreme categories

  • DAUG: Ghardaia, Algeria
        Temperature, Wind, Sand/Sandstorm
  • KCAO: Clayton, Clayton Municipal Airpark, NM, United States
        Wind, Precipitation Type/Intensity, Thunderstorm
  • KHWO: Hollywood, North Perry Airport, FL, United States
        Precipitation Type/Intensity, Hourly Precip Total, Thunderstorm
  • TTCP: Crown Pt./ Scarborou, Trinidad and Tobago
        Dewpoint, Precipitation Type/Intensity, Thunderstorm
Stations falling into 2 extreme categories

  • CYRQ: Trois Rivieres, Que, Canada
        Precipitation Type/Intensity, Thunderstorm
  • CYSC: Sherbrooke, Que., Canada
        Precipitation Type/Intensity, Thunderstorm
  • DNPO: Port Harcourt, Nigeria
        Dewpoint, Thunderstorm
  • K2IS: Clewiston, FL, United States
        Precipitation Type/Intensity, Hourly Precip Total
  • K4A6: Scottsboro, AL, United States
        Temperature, Dewpoint
  • K82V: Pine Bluffs Municipality, WY, United States
        Precipitation Type/Intensity, Thunderstorm
  • KBJC: Broomfield / Jeffco, CO, United States
        Thunderstorm, Visibility
  • KFEW: Francis Warren AFB, WY, United States
        Precipitation Type/Intensity, Thunderstorm
  • KFLL: Fort Lauderdale/Hollywood, FL, United States
        Dewpoint, Thunderstorm
  • KFMM: Fort Morgan, CO, United States
        Wind, Precipitation Type/Intensity
  • KGYR: Goodyear Municipal, AZ, United States
        Temperature, Visibility
  • KHUL: Houlton, Houlton Intl Arpt, ME, United States
        Precipitation Type/Intensity, Thunderstorm
  • KMWN: Mount Washington, NH, United States
        Wind, Visibility
  • KOMN: Ormond Beach, FL, United States
        Dewpoint, Smoke
  • KOPF: Miami, Opa Locka Airport, FL, United States
        Precipitation Type/Intensity, Hourly Precip Total
  • KPQI: Presque Isle, ME, United States
        Precipitation Type/Intensity, Thunderstorm
  • LETL: Tereul, Spain
        Precipitation Type/Intensity, Thunderstorm
  • LEVC: Valencia / Aeropuerto, Spain
        Wind, Thunderstorm
  • MKJS: Montego Bay / Sangster, Jamaica
        Dewpoint, Thunderstorm
  • MMML: Mexicali Intl Arpt, Mexico
        Temperature, Smoke
  • MNMG: Managua A. C. Sandino, Nicaragua
        Dewpoint, Thunderstorm
  • MSLP: El Salvador Intl. Airport / Comalapa, El Salvador
        Dewpoint, Thunderstorm
  • MWCR: Owen Roberts Airport Grand Cayman, Cayman Islands
        Dewpoint, Thunderstorm
  • MYNN: Nassau Airport, Bahamas, The
        Dewpoint, Thunderstorm
  • MZBZ: Goldston Intl. Airport, Belize
        Dewpoint, Smoke
  • NZCM: Williams Field, Antarctica
        Wind, Pressure
  • NZSP: Amundsen-Scott Stn, Antarctica
        Temperature, Ice Crystals/Diamond Dust
  • PABI: Delta Junction/Ft Greely, AK, United States
        Dust/Duststorm, Smoke
  • ROIG: Ishigakijima, Japan
        Dewpoint, Thunderstorm
  • RORS: Shimoji-Shima Island, Japan
        Dewpoint, Thunderstorm
  • SKLT: Leticia / Vasquez Cobo, Colombia
        Dewpoint, Thunderstorm
  • SKSM: Santa Marta / Simon Bolivar, Colombia
        Dewpoint, Thunderstorm
  • SKUI: Quibdo / El Carano, Colombia
        Dewpoint, Thunderstorm
  • SMJP: Johan A. Pengel, Suriname
        Dewpoint, Thunderstorm
  • SPHY: Andahuayla, Peru
        Pressure, Bird Hazard
  • SPJJ: Jauja, Peru
        Pressure, Bird Hazard
  • SPJL: Juliaca, Peru
        Pressure, Bird Hazard
  • SPQT: Iquitos, Peru
        Dewpoint, Thunderstorm
  • UHHH: Habarovsk, Russia
        Precipitation Type/Intensity, Visibility
  • VABB: Bombay / Santacruz, India
        Dewpoint, Thunderstorm
  • VVCI: Cat Bi, Viet Nam
        Dewpoint, Precipitation Type/Intensity
  • WARR: Juanda, Indonesia
        Dewpoint, Thunderstorm
  • WIMM: Medan / Polonia, Indonesia
        Dewpoint, Thunderstorm
  • WMKP: Penang / Bayan Lepas, Malaysia
        Dewpoint, Thunderstorm


99 unidentified stations (out of a total of 165 documented unknown stations)

  • ENUN (OLD)
  • EQYE (OLD)
  • EQYF (OLD)
  • EQYT (OLD)
  • EQYV (OLD)
  • FCOD (NEW)
  • HESX (NEW)
  • HKGO (OLD)
  • HTIB (OLD)
  • K0D8 (NEW)
  • K0W3 (NEW)
  • K10U (NEW)
  • K1B9 (NEW)
  • K1D8 (NEW)
  • K1K8 (NEW)
  • K2M8 (NEW)
  • K2R2 (NEW)
  • K3K7 (NEW)
  • K3W7 (NEW)
  • K42A (NEW)
  • K49B (NEW)
  • K4B8 (NEW)
  • K60R (NEW)
  • K8V7 (NEW)
  • K9Y1 (NEW)
  • KACZ (NEW)
  • KANR (NEW)
  • KBFA (NEW)
  • KC08 (NEW)
  • KCPP (NEW)
  • KCSB (NEW)
  • KD09 (NEW)
  • KDRP (NEW)
  • KE01 (NEW)
  • KE57 (NEW)
  • KE77 (NEW)
  • KETO (NEW)
  • KF95 (NEW)
  • KFOM (NEW)
  • KGDK (NEW)
  • KHVC (NEW)
  • KI40 (NEW)
  • KI95 (NEW)
  • KK83 (NEW)
  • KMCZ (NEW)
  • KMKQ (NEW)
  • KN79 (NEW)
  • KOYE (NEW)
  • KQA8 (OLD)
  • KQAL (OLD)
  • KQB3 (OLD)
  • KQCG (OLD)
  • KQD3 (OLD)
  • KQEK (OLD)
  • KQEO (OLD)
  • KQGE (OLD)
  • KQHB (OLD)
  • KQHC (OLD)
  • KQJQ (NEW)
  • KQNE (NEW)
  • KQOA (OLD)
  • KQOO (NEW)
  • KQRD (OLD)
  • KQRP (NEW)
  • KQX2 (OLD)
  • KQXH (OLD)
  • KQYI (NEW)
  • KS12 (NEW)
  • KSBX (NEW)
  • KTQV (OLD)
  • KU64 (NEW)
  • KUWL (NEW)
  • KVGN (NEW)
  • KXIF (OLD)
  • LETU (OLD)
  • LIRY (NEW)
  • LRBV (NEW)
  • LTFO (OLD)
  • MGMT (OLD)
  • MGTU (OLD)
  • MMGA (NEW)
  • NZQN (NEW)
  • OEAR (OLD)
  • OEMN (NEW)
  • OERS (NEW)
  • OKKK (NEW)
  • PACX (NEW)
  • PANU (NEW)
  • PAPE (NEW)
  • PFKO (NEW)
  • PFTO (NEW)
  • PFZK (NEW)
  • UBBZ (NEW)
  • VAJM (NEW)
  • VDSA (NEW)
  • VISP (NEW)
  • VOGA (NEW)
  • WILL (NEW)
  • YBSU (NEW)